Time,TemperatureF,DewpointF,PressureIn,WindDirection,WindDirectionDegrees,WindSpeedMPH,WindSpeedGustMPH,Humidity,HourlyPrecipIn,Conditions,Clouds,dailyrainin,SoftwareType,DateUTC
2013-08-22 00:00:00,72.4,47.4,29.86,North,5,0.0,2.0,41,0.00,,,0.00,Wunderground v.1.15,2013-08-22 07:00:00,
2013-08-22 00:04:00,72.0,42.8,29.86,North,5,0.0,1.0,35,0.00,,,0.00,Wunderground v.1.15,2013-08-22 07:04:00,
2013-08-22 00:05:00,71.9,42.0,29.86,North,5,2.0,2.0,34,0.00,,,0.00,Wunderground v.1.15,2013-08-22 07:05:00,
2013-08-22 00:09:00,71.6,43.9,29.86,North,5,0.0,2.0,37,0.00,,,0.00,Wunderground v.1.15,2013-08-22 07:09:00,
2013-08-22 00:10:00,71.4,43.8,29.86,North,5,0.0,2.0,37,0.00,,,0.00,Wunderground v.1.15,2013-08-22 07:10:00,
2013-08-22 00:14:00,71.3,42.2,29.86,North,5,0.0,0.0,35,0.00,,,0.00,Wunderground v.1.15,2013-08-22 07:14:00,
2013-08-22 00:15:00,71.5,42.4,29.86,North,5,0.0,0.0,35,0.00,,,0.00,Wunderground v.1.15,2013-08-22 07:15:00,
2013-08-22 00:19:00,71.7,42.6,29.86,North,5,0.0,0.0,35,0.00,,,0.00,Wunderground v.1.15,2013-08-22 07:19:00,
2013-08-22 00:20:00,71.8,43.4,29.86,North,5,0.0,0.0,36,0.00,,,0.00,Wunderground v.1.15,2013-08-22 07:20:00,
2013-08-22 00:21:00,71.9,44.2,29.86,North,5,0.0,0.0,37,0.00,,,0.00,Wunderground v.1.15,2013-08-22 07:21:00,
2013-08-22 00:24:00,72.0,44.3,29.86,North,5,0.0,0.0,37,0.00,,,0.00,Wunderground v.1.15,2013-08-22 07:24:00,
2013-08-22 00:25:00,71.9,44.2,29.86,North,5,0.0,0.0,37,0.00,,,0.00,Wunderground v.1.15,2013-08-22 07:25:00,
2013-08-22 00:26:00,71.9,43.5,29.86,North,5,0.0,0.0,36,0.00,,,0.00,Wunderground v.1.15,2013-08-22 07:26:00,
2013-08-22 00:29:00,71.8,41.9,29.86,North,5,1.0,2.0,34,0.00,,,0.00,Wunderground v.1.15,2013-08-22 07:29:00,
2013-08-22 00:30:00,71.8,40.3,29.86,North,5,1.0,2.0,32,0.00,,,0.00,Wunderground v.1.15,2013-08-22 07:30:00,
2013-08-22 00:31:00,72.1,43.7,29.86,North,5,2.0,3.0,36,0.00,,,0.00,Wunderground v.1.15,2013-08-22 07:31:00,
2013-08-22 00:34:00,72.6,41.0,29.86,North,5,3.0,5.0,32,0.00,,,0.00,Wunderground v.1.15,2013-08-22 07:34:00,
2013-08-22 00:35:00,72.7,41.9,29.86,North,360,4.0,7.0,33,0.00,,,0.00,Wunderground v.1.15,2013-08-22 07:35:00,
2013-08-22 00:36:00,73.1,50.5,29.86,North,360,0.0,7.0,45,0.00,,,0.00,Wunderground v.1.15,2013-08-22 07:36:00,
2013-08-22 00:39:00,73.4,45.5,29.86,North,360,0.0,7.0,37,0.00,,,0.00,Wunderground v.1.15,2013-08-22 07:39:00,
2013-08-22 00:40:00,73.4,45.5,29.86,North,360,0.0,7.0,37,0.00,,,0.00,Wunderground v.1.15,2013-08-22 07:40:00,
2013-08-22 00:42:00,73.3,44.7,29.86,North,360,0.0,1.0,36,0.00,,,0.00,Wunderground v.1.15,2013-08-22 07:42:00,
2013-08-22 00:44:00,73.0,43.0,29.86,North,360,1.0,1.0,34,0.00,,,0.00,Wunderground v.1.15,2013-08-22 07:44:00,
2013-08-22 00:45:00,73.0,43.0,29.86,North,360,1.0,1.0,34,0.00,,,0.00,Wunderground v.1.15,2013-08-22 07:45:00,
2013-08-22 00:46:00,72.7,44.2,29.86,North,360,0.0,1.0,36,0.00,,,0.00,Wunderground v.1.15,2013-08-22 07:46:00,
2013-08-22 00:47:00,72.6,44.1,29.86,North,360,0.0,1.0,36,0.00,,,0.00,Wunderground v.1.15,2013-08-22 07:47:00,
2013-08-22 00:49:00,72.2,43.8,29.86,North,360,1.0,2.0,36,0.00,,,0.00,Wunderground v.1.15,2013-08-22 07:49:00,
2013-08-22 00:50:00,72.2,45.2,29.86,North,360,0.0,2.0,38,0.00,,,0.00,Wunderground v.1.15,2013-08-22 07:50:00,
2013-08-22 00:51:00,71.9,43.5,29.86,North,360,0.0,1.0,36,0.00,,,0.00,Wunderground v.1.15,2013-08-22 07:51:00,
2013-08-22 00:52:00,71.7,44.7,29.86,North,360,0.0,1.0,38,0.00,,,0.00,Wunderground v.1.15,2013-08-22 07:52:00,
2013-08-22 00:55:00,71.0,44.8,29.86,North,360,0.0,2.0,39,0.00,,,0.00,Wunderground v.1.15,2013-08-22 07:55:00,
2013-08-22 00:56:00,70.7,49.5,29.87,North,360,1.0,2.0,47,0.00,,,0.00,Wunderground v.1.15,2013-08-22 07:56:00,
2013-08-22 00:57:00,70.5,49.3,29.87,North,360,1.0,2.0,47,0.00,,,0.00,Wunderground v.1.15,2013-08-22 07:57:00,
2013-08-22 01:00:00,70.1,46.6,29.87,North,360,0.0,2.0,43,0.00,,,0.00,Wunderground v.1.15,2013-08-22 08:00:00,
2013-08-22 01:01:00,69.9,46.4,29.87,North,360,0.0,1.0,43,0.00,,,0.00,Wunderground v.1.15,2013-08-22 08:01:00,
2013-08-22 01:02:00,69.7,46.8,29.87,North,360,0.0,1.0,44,0.00,,,0.00,Wunderground v.1.15,2013-08-22 08:02:00,
2013-08-22 01:05:00,69.0,47.4,29.87,North,360,0.0,1.0,46,0.00,,,0.00,Wunderground v.1.15,2013-08-22 08:05:00,
2013-08-22 01:06:00,68.9,47.3,29.87,North,360,1.0,1.0,46,0.00,,,0.00,Wunderground v.1.15,2013-08-22 08:06:00,
2013-08-22 01:07:00,68.4,46.8,29.87,North,360,0.0,1.0,46,0.00,,,0.00,Wunderground v.1.15,2013-08-22 08:07:00,
2013-08-22 01:08:00,68.3,47.3,29.87,North,360,0.0,1.0,47,0.00,,,0.00,Wunderground v.1.15,2013-08-22 08:08:00,
2013-08-22 01:10:00,67.8,47.9,29.87,North,360,0.0,0.0,49,0.00,,,0.00,Wunderground v.1.15,2013-08-22 08:10:00,
2013-08-22 01:11:00,67.7,49.9,29.87,North,360,0.0,0.0,53,0.00,,,0.00,Wunderground v.1.15,2013-08-22 08:11:00,
2013-08-22 01:12:00,67.1,48.4,29.87,North,360,1.0,2.0,51,0.00,,,0.00,Wunderground v.1.15,2013-08-22 08:12:00,
2013-08-22 01:13:00,66.9,48.2,29.87,North,360,0.0,2.0,51,0.00,,,0.00,Wunderground v.1.15,2013-08-22 08:13:00,
2013-08-22 01:15:00,66.1,46.4,29.87,North,360,1.0,2.0,49,0.00,,,0.00,Wunderground v.1.15,2013-08-22 08:15:00,
2013-08-22 01:16:00,66.1,46.9,29.87,North,360,1.0,2.0,50,0.00,,,0.00,Wunderground v.1.15,2013-08-22 08:16:00,
2013-08-22 01:18:00,65.7,46.5,29.87,North,360,0.0,2.0,50,0.00,,,0.00,Wunderground v.1.15,2013-08-22 08:18:00,
2013-08-22 01:20:00,65.3,47.2,29.87,North,360,2.0,2.0,52,0.00,,,0.00,Wunderground v.1.15,2013-08-22 08:20:00,
2013-08-22 01:21:00,65.2,47.1,29.87,North,360,2.0,3.0,52,0.00,,,0.00,Wunderground v.1.15,2013-08-22 08:21:00,
2013-08-22 01:23:00,64.8,46.8,29.86,North,360,1.0,3.0,52,0.00,,,0.00,Wunderground v.1.15,2013-08-22 08:23:00,
2013-08-22 01:25:00,64.6,46.6,29.87,North,360,2.0,3.0,52,0.00,,,0.00,Wunderground v.1.15,2013-08-22 08:25:00,
2013-08-22 01:26:00,64.6,48.5,29.86,North,360,2.0,3.0,56,0.00,,,0.00,Wunderground v.1.15,2013-08-22 08:26:00,
2013-08-22 01:28:00,64.5,47.5,29.86,North,360,2.0,3.0,54,0.00,,,0.00,Wunderground v.1.15,2013-08-22 08:28:00,
2013-08-22 01:30:00,64.5,47.0,29.87,North,360,2.0,2.0,53,0.00,,,0.00,Wunderground v.1.15,2013-08-22 08:30:00,
2013-08-22 01:31:00,64.5,46.0,29.87,North,360,2.0,3.0,51,0.00,,,0.00,Wunderground v.1.15,2013-08-22 08:31:00,
2013-08-22 01:33:00,64.5,46.5,29.86,North,360,1.0,3.0,52,0.00,,,0.00,Wunderground v.1.15,2013-08-22 08:33:00,
2013-08-22 01:35:00,64.4,46.4,29.86,North,360,1.0,3.0,52,0.00,,,0.00,Wunderground v.1.15,2013-08-22 08:35:00,
2013-08-22 01:36:00,64.4,47.4,29.86,North,360,1.0,3.0,54,0.00,,,0.00,Wunderground v.1.15,2013-08-22 08:36:00,
2013-08-22 01:38:00,64.3,45.8,29.86,North,360,1.0,3.0,51,0.00,,,0.00,Wunderground v.1.15,2013-08-22 08:38:00,
2013-08-22 01:40:00,64.4,44.8,29.86,North,360,1.0,1.0,49,0.00,,,0.00,Wunderground v.1.15,2013-08-22 08:40:00,
2013-08-22 01:41:00,64.6,45.5,29.86,North,360,1.0,2.0,50,0.00,,,0.00,Wunderground v.1.15,2013-08-22 08:41:00,
2013-08-22 01:42:00,64.6,45.5,29.86,North,360,2.0,2.0,50,0.00,,,0.00,Wunderground v.1.15,2013-08-22 08:42:00,
2013-08-22 01:43:00,64.7,45.1,29.86,North,360,1.0,2.0,49,0.00,,,0.00,Wunderground v.1.15,2013-08-22 08:43:00,
2013-08-22 01:46:00,65.2,43.9,29.86,North,360,2.0,2.0,46,0.00,,,0.00,Wunderground v.1.15,2013-08-22 08:46:00,
2013-08-22 01:47:00,65.4,45.7,29.86,North,360,0.0,2.0,49,0.00,,,0.00,Wunderground v.1.15,2013-08-22 08:47:00,
2013-08-22 01:48:00,65.4,44.6,29.86,North,360,0.0,2.0,47,0.00,,,0.00,Wunderground v.1.15,2013-08-22 08:48:00,
2013-08-22 01:49:00,65.5,44.7,29.86,North,360,0.0,2.0,47,0.00,,,0.00,Wunderground v.1.15,2013-08-22 08:49:00,
2013-08-22 01:51:00,65.6,44.3,29.86,North,360,0.0,1.0,46,0.00,,,0.00,Wunderground v.1.15,2013-08-22 08:51:00,
2013-08-22 01:52:00,65.6,43.7,29.86,North,360,0.0,1.0,45,0.00,,,0.00,Wunderground v.1.15,2013-08-22 08:52:00,
2013-08-22 01:53:00,65.7,43.8,29.86,North,360,0.0,1.0,45,0.00,,,0.00,Wunderground v.1.15,2013-08-22 08:53:00,
2013-08-22 01:54:00,65.8,43.9,29.86,North,360,0.0,1.0,45,0.00,,,0.00,Wunderground v.1.15,2013-08-22 08:54:00,
2013-08-22 01:56:00,65.9,45.1,29.86,North,360,0.0,1.0,47,0.00,,,0.00,Wunderground v.1.15,2013-08-22 08:56:00,
2013-08-22 01:57:00,66.0,46.8,29.86,North,360,0.0,1.0,50,0.00,,,0.00,Wunderground v.1.15,2013-08-22 08:57:00,
2013-08-22 01:58:00,66.1,46.9,29.86,North,360,0.0,1.0,50,0.00,,,0.00,Wunderground v.1.15,2013-08-22 08:58:00,
2013-08-22 01:59:00,66.1,46.4,29.86,North,360,0.0,1.0,49,0.00,,,0.00,Wunderground v.1.15,2013-08-22 08:59:00,
2013-08-22 02:01:00,66.1,45.3,29.86,North,360,0.0,0.0,47,0.00,,,0.00,Wunderground v.1.15,2013-08-22 09:01:00,
2013-08-22 02:02:00,66.0,45.7,29.86,North,360,0.0,2.0,48,0.00,,,0.00,Wunderground v.1.15,2013-08-22 09:02:00,
2013-08-22 02:03:00,65.9,45.6,29.86,North,360,1.0,2.0,48,0.00,,,0.00,Wunderground v.1.15,2013-08-22 09:03:00,
2013-08-22 02:04:00,65.9,46.2,29.86,North,360,0.0,2.0,49,0.00,,,0.00,Wunderground v.1.15,2013-08-22 09:04:00,
2013-08-22 02:06:00,65.6,46.5,29.86,North,360,3.0,3.0,50,0.00,,,0.00,Wunderground v.1.15,2013-08-22 09:06:00,
2013-08-22 02:07:00,65.4,46.3,29.86,North,360,2.0,3.0,50,0.00,,,0.00,Wunderground v.1.15,2013-08-22 09:07:00,
2013-08-22 02:08:00,65.1,45.5,29.86,North,360,2.0,3.0,49,0.00,,,0.00,Wunderground v.1.15,2013-08-22 09:08:00,
2013-08-22 02:09:00,65.0,45.9,29.86,North,360,1.0,3.0,50,0.00,,,0.00,Wunderground v.1.15,2013-08-22 09:09:00,
2013-08-22 02:11:00,64.7,46.1,29.86,North,360,2.0,3.0,51,0.00,,,0.00,Wunderground v.1.15,2013-08-22 09:11:00,
2013-08-22 02:12:00,64.4,46.4,29.86,North,360,1.0,3.0,52,0.00,,,0.00,Wunderground v.1.15,2013-08-22 09:12:00,
2013-08-22 02:13:00,64.2,47.7,29.86,North,360,0.0,3.0,55,0.00,,,0.00,Wunderground v.1.15,2013-08-22 09:13:00,
2013-08-22 02:14:00,64.1,48.5,29.86,North,360,0.0,3.0,57,0.00,,,0.00,Wunderground v.1.15,2013-08-22 09:14:00,
2013-08-22 02:16:00,63.8,48.3,29.86,North,360,1.0,3.0,57,0.00,,,0.00,Wunderground v.1.15,2013-08-22 09:16:00,
2013-08-22 02:17:00,63.7,48.2,29.86,North,360,1.0,3.0,57,0.00,,,0.00,Wunderground v.1.15,2013-08-22 09:17:00,
2013-08-22 02:18:00,63.5,47.5,29.86,North,360,1.0,3.0,56,0.00,,,0.00,Wunderground v.1.15,2013-08-22 09:18:00,
2013-08-22 02:19:00,63.5,47.5,29.86,North,360,1.0,3.0,56,0.00,,,0.00,Wunderground v.1.15,2013-08-22 09:19:00,
2013-08-22 02:21:00,63.4,46.9,29.86,North,360,1.0,1.0,55,0.00,,,0.00,Wunderground v.1.15,2013-08-22 09:21:00,
2013-08-22 02:22:00,63.4,46.5,29.86,North,360,0.0,2.0,54,0.00,,,0.00,Wunderground v.1.15,2013-08-22 09:22:00,
2013-08-22 02:23:00,63.4,47.4,29.86,North,360,0.0,2.0,56,0.00,,,0.00,Wunderground v.1.15,2013-08-22 09:23:00,
2013-08-22 02:24:00,63.4,46.9,29.86,North,360,0.0,2.0,55,0.00,,,0.00,Wunderground v.1.15,2013-08-22 09:24:00,
2013-08-22 02:26:00,63.4,46.9,29.86,North,360,2.0,2.0,55,0.00,,,0.00,Wunderground v.1.15,2013-08-22 09:26:00,
2013-08-22 02:27:00,63.4,46.0,29.86,North,360,2.0,3.0,53,0.00,,,0.00,Wunderground v.1.15,2013-08-22 09:27:00,
2013-08-22 02:28:00,63.7,42.5,29.86,North,360,2.0,3.0,46,0.00,,,0.00,Wunderground v.1.15,2013-08-22 09:28:00,
2013-08-22 02:29:00,63.9,42.7,29.86,North,360,1.0,3.0,46,0.00,,,0.00,Wunderground v.1.15,2013-08-22 09:29:00,
2013-08-22 02:32:00,65.6,43.7,29.86,North,360,2.0,2.0,45,0.00,,,0.00,Wunderground v.1.15,2013-08-22 09:32:00,
2013-08-22 02:34:00,66.2,43.6,29.86,North,360,2.0,2.0,44,0.00,,,0.00,Wunderground v.1.15,2013-08-22 09:34:00,
2013-08-22 02:37:00,67.5,42.3,29.86,North,360,1.0,2.0,40,0.00,,,0.00,Wunderground v.1.15,2013-08-22 09:37:00,
2013-08-22 02:38:00,67.5,44.8,29.86,North,360,2.0,2.0,44,0.00,,,0.00,Wunderground v.1.15,2013-08-22 09:38:00,
2013-08-22 02:39:00,67.7,41.8,29.86,North,360,0.0,2.0,39,0.00,,,0.00,Wunderground v.1.15,2013-08-22 09:39:00,
2013-08-22 02:43:00,68.5,50.2,29.86,North,360,0.0,2.0,52,0.00,,,0.00,Wunderground v.1.15,2013-08-22 09:43:00,
2013-08-22 02:44:00,68.5,53.6,29.87,North,360,0.0,2.0,59,0.00,,,0.00,Wunderground v.1.15,2013-08-22 09:44:00,
2013-08-22 02:48:00,67.8,53.9,29.86,North,360,0.0,2.0,61,0.00,,,0.00,Wunderground v.1.15,2013-08-22 09:48:00,
2013-08-22 02:49:00,67.5,53.6,29.86,North,360,1.0,2.0,61,0.00,,,0.00,Wunderground v.1.15,2013-08-22 09:49:00,
2013-08-22 02:53:00,66.5,52.6,29.86,North,360,0.0,1.0,61,0.00,,,0.00,Wunderground v.1.15,2013-08-22 09:53:00,
2013-08-22 02:54:00,66.2,51.4,29.86,North,360,0.0,1.0,59,0.00,,,0.00,Wunderground v.1.15,2013-08-22 09:54:00,
2013-08-22 02:55:00,66.1,52.7,29.86,North,360,2.0,2.0,62,0.00,,,0.00,Wunderground v.1.15,2013-08-22 09:55:00,
2013-08-22 02:58:00,65.5,48.9,29.86,North,360,0.0,2.0,55,0.00,,,0.00,Wunderground v.1.15,2013-08-22 09:58:00,
2013-08-22 02:59:00,65.3,50.1,29.86,North,360,0.0,2.0,58,0.00,,,0.00,Wunderground v.1.15,2013-08-22 09:59:00,
2013-08-22 03:00:00,65.3,51.5,29.86,North,360,1.0,2.0,61,0.00,,,0.00,Wunderground v.1.15,2013-08-22 10:00:00,
2013-08-22 03:03:00,65.0,49.4,29.86,North,360,0.0,1.0,57,0.00,,,0.00,Wunderground v.1.15,2013-08-22 10:03:00,
2013-08-22 03:04:00,64.8,46.8,29.86,North,360,0.0,1.0,52,0.00,,,0.00,Wunderground v.1.15,2013-08-22 10:04:00,
2013-08-22 03:05:00,64.7,45.6,29.86,North,360,0.0,1.0,50,0.00,,,0.00,Wunderground v.1.15,2013-08-22 10:05:00,
2013-08-22 03:08:00,64.6,46.6,29.86,North,360,0.0,1.0,52,0.00,,,0.00,Wunderground v.1.15,2013-08-22 10:08:00,
2013-08-22 03:09:00,64.5,44.9,29.86,North,360,0.0,1.0,49,0.00,,,0.00,Wunderground v.1.15,2013-08-22 10:09:00,
2013-08-22 03:10:00,64.5,44.4,29.86,North,360,0.0,1.0,48,0.00,,,0.00,Wunderground v.1.15,2013-08-22 10:10:00,
2013-08-22 03:13:00,64.6,45.5,29.86,North,360,0.0,0.0,50,0.00,,,0.00,Wunderground v.1.15,2013-08-22 10:13:00,
2013-08-22 03:14:00,64.6,43.9,29.86,North,360,0.0,0.0,47,0.00,,,0.00,Wunderground v.1.15,2013-08-22 10:14:00,
2013-08-22 03:15:00,64.6,43.3,29.86,North,360,0.0,0.0,46,0.00,,,0.00,Wunderground v.1.15,2013-08-22 10:15:00,
2013-08-22 03:18:00,64.9,44.7,29.86,North,360,0.0,0.0,48,0.00,,,0.00,Wunderground v.1.15,2013-08-22 10:18:00,
2013-08-22 03:19:00,64.9,47.9,29.86,North,360,0.0,0.0,54,0.00,,,0.00,Wunderground v.1.15,2013-08-22 10:19:00,
2013-08-22 03:20:00,64.8,45.7,29.86,North,360,0.0,0.0,50,0.00,,,0.00,Wunderground v.1.15,2013-08-22 10:20:00,
2013-08-22 03:23:00,64.7,45.6,29.86,North,360,0.0,0.0,50,0.00,,,0.00,Wunderground v.1.15,2013-08-22 10:23:00,
2013-08-22 03:24:00,64.6,46.1,29.86,North,360,0.0,0.0,51,0.00,,,0.00,Wunderground v.1.15,2013-08-22 10:24:00,
2013-08-22 03:25:00,64.5,46.0,29.86,North,360,1.0,2.0,51,0.00,,,0.00,Wunderground v.1.15,2013-08-22 10:25:00,
2013-08-22 03:28:00,64.0,45.0,29.85,North,360,0.0,2.0,50,0.00,,,0.00,Wunderground v.1.15,2013-08-22 10:28:00,
2013-08-22 03:29:00,64.0,45.0,29.85,North,360,3.0,3.0,50,0.00,,,0.00,Wunderground v.1.15,2013-08-22 10:29:00,
2013-08-22 03:30:00,64.0,42.8,29.85,North,360,2.0,3.0,46,0.00,,,0.00,Wunderground v.1.15,2013-08-22 10:30:00,
2013-08-22 03:33:00,64.1,44.5,29.85,North,360,1.0,3.0,49,0.00,,,0.00,Wunderground v.1.15,2013-08-22 10:33:00,
2013-08-22 03:34:00,64.2,44.6,29.85,North,360,0.0,3.0,49,0.00,,,0.00,Wunderground v.1.15,2013-08-22 10:34:00,
2013-08-22 03:35:00,64.3,43.1,29.85,North,360,2.0,3.0,46,0.00,,,0.00,Wunderground v.1.15,2013-08-22 10:35:00,
2013-08-22 03:38:00,65.6,41.3,29.85,North,360,2.0,3.0,41,0.00,,,0.00,Wunderground v.1.15,2013-08-22 10:38:00,
2013-08-22 03:39:00,66.2,41.2,29.86,North,360,1.0,3.0,40,0.00,,,0.00,Wunderground v.1.15,2013-08-22 10:39:00,
2013-08-22 03:40:00,66.8,41.7,29.86,North,360,0.0,3.0,40,0.00,,,0.00,Wunderground v.1.15,2013-08-22 10:40:00,
2013-08-22 03:43:00,67.5,44.2,29.86,North,360,1.0,3.0,43,0.00,,,0.00,Wunderground v.1.15,2013-08-22 10:43:00,
2013-08-22 03:44:00,67.5,44.2,29.86,North,360,1.0,3.0,43,0.00,,,0.00,Wunderground v.1.15,2013-08-22 10:44:00,
2013-08-22 03:45:00,67.4,44.1,29.86,North,360,1.0,3.0,43,0.00,,,0.00,Wunderground v.1.15,2013-08-22 10:45:00,
2013-08-22 03:48:00,66.9,44.9,29.86,North,360,1.0,3.0,45,0.00,,,0.00,Wunderground v.1.15,2013-08-22 10:48:00,
2013-08-22 03:49:00,66.8,44.8,29.86,North,360,1.0,3.0,45,0.00,,,0.00,Wunderground v.1.15,2013-08-22 10:49:00,
2013-08-22 05:27:00,62.3,44.9,29.85,North,360,0.0,0.0,53,0.00,,,0.00,Wunderground v.1.15,2013-08-22 12:27:00,
2013-08-22 05:28:00,62.4,45.0,29.85,North,360,0.0,0.0,53,0.00,,,0.00,Wunderground v.1.15,2013-08-22 12:28:00,
2013-08-22 05:32:00,62.4,45.0,29.85,North,360,0.0,0.0,53,0.00,,,0.00,Wunderground v.1.15,2013-08-22 12:32:00,
2013-08-22 05:33:00,62.5,45.1,29.85,North,360,0.0,0.0,53,0.00,,,0.00,Wunderground v.1.15,2013-08-22 12:33:00,
2013-08-22 05:37:00,62.7,44.8,29.85,North,360,2.0,3.0,52,0.00,,,0.00,Wunderground v.1.15,2013-08-22 12:37:00,
2013-08-22 05:38:00,62.7,44.3,29.85,North,360,2.0,3.0,51,0.00,,,0.00,Wunderground v.1.15,2013-08-22 12:38:00,
2013-08-22 05:42:00,63.0,44.1,29.85,North,360,3.0,3.0,50,0.00,,,0.00,Wunderground v.1.15,2013-08-22 12:42:00,
2013-08-22 05:43:00,63.1,46.2,29.85,North,360,2.0,3.0,54,0.00,,,0.00,Wunderground v.1.15,2013-08-22 12:43:00,
2013-08-22 05:47:00,62.9,44.0,29.85,North,360,0.0,3.0,50,0.00,,,0.00,Wunderground v.1.15,2013-08-22 12:47:00,
2013-08-22 05:48:00,63.0,44.1,29.84,North,360,0.0,3.0,50,0.00,,,0.00,Wunderground v.1.15,2013-08-22 12:48:00,
2013-08-22 05:52:00,63.4,43.9,29.85,North,360,2.0,2.0,49,0.00,,,0.00,Wunderground v.1.15,2013-08-22 12:52:00,
2013-08-22 05:53:00,63.4,43.9,29.85,North,360,1.0,2.0,49,0.00,,,0.00,Wunderground v.1.15,2013-08-22 12:53:00,
2013-08-22 05:54:00,63.5,44.0,29.85,North,360,1.0,2.0,49,0.00,,,0.00,Wunderground v.1.15,2013-08-22 12:54:00,
2013-08-22 05:57:00,63.6,45.1,29.85,North,360,0.0,2.0,51,0.00,,,0.00,Wunderground v.1.15,2013-08-22 12:57:00,
2013-08-22 05:58:00,63.6,45.6,29.85,North,360,2.0,3.0,52,0.00,,,0.00,Wunderground v.1.15,2013-08-22 12:58:00,
2013-08-22 06:00:00,63.3,44.9,29.86,North,360,1.0,3.0,51,0.00,,,0.00,Wunderground v.1.15,2013-08-22 13:00:00,
2013-08-22 06:02:00,63.1,45.2,29.86,North,360,3.0,4.0,52,0.00,,,0.00,Wunderground v.1.15,2013-08-22 13:02:00,
2013-08-22 06:03:00,63.1,45.2,29.86,North,360,3.0,4.0,52,0.00,,,0.00,Wunderground v.1.15,2013-08-22 13:03:00,
2013-08-22 06:04:00,63.0,45.1,29.86,North,360,4.0,4.0,52,0.00,,,0.00,Wunderground v.1.15,2013-08-22 13:04:00,
2013-08-22 06:05:00,62.9,45.0,29.86,North,360,2.0,4.0,52,0.00,,,0.00,Wunderground v.1.15,2013-08-22 13:05:00,
2013-08-22 06:08:00,62.7,45.3,29.86,North,360,0.0,4.0,53,0.00,,,0.00,Wunderground v.1.15,2013-08-22 13:08:00,
2013-08-22 06:09:00,62.6,45.2,29.86,North,360,0.0,4.0,53,0.00,,,0.00,Wunderground v.1.15,2013-08-22 13:09:00,
2013-08-22 06:10:00,62.5,45.1,29.86,North,360,0.0,4.0,53,0.00,,,0.00,Wunderground v.1.15,2013-08-22 13:10:00,
2013-08-22 06:13:00,62.3,45.4,29.86,North,360,2.0,2.0,54,0.00,,,0.00,Wunderground v.1.15,2013-08-22 13:13:00,
2013-08-22 06:14:00,62.3,45.4,29.86,North,360,1.0,2.0,54,0.00,,,0.00,Wunderground v.1.15,2013-08-22 13:14:00,
2013-08-22 06:16:00,62.1,46.2,29.86,North,360,2.0,3.0,56,0.00,,,0.00,Wunderground v.1.15,2013-08-22 13:16:00,
2013-08-22 06:18:00,61.9,46.0,29.86,North,360,1.0,3.0,56,0.00,,,0.00,Wunderground v.1.15,2013-08-22 13:18:00,
2013-08-22 06:19:00,61.8,45.9,29.86,North,360,1.0,3.0,56,0.00,,,0.00,Wunderground v.1.15,2013-08-22 13:19:00,
2013-08-22 06:21:00,61.6,45.7,29.86,North,360,1.0,2.0,56,0.00,,,0.00,Wunderground v.1.15,2013-08-22 13:21:00,
2013-08-22 06:23:00,61.5,46.1,29.86,North,360,1.0,2.0,57,0.00,,,0.00,Wunderground v.1.15,2013-08-22 13:23:00,
2013-08-22 06:24:00,61.5,46.1,29.86,North,360,2.0,2.0,57,0.00,,,0.00,Wunderground v.1.15,2013-08-22 13:24:00,
2013-08-22 06:26:00,61.3,45.5,29.86,North,360,2.0,2.0,56,0.00,,,0.00,Wunderground v.1.15,2013-08-22 13:26:00,
2013-08-22 06:28:00,61.2,46.3,29.86,North,360,2.0,3.0,58,0.00,,,0.00,Wunderground v.1.15,2013-08-22 13:28:00,
2013-08-22 06:29:00,61.2,45.4,29.86,North,360,1.0,3.0,56,0.00,,,0.00,Wunderground v.1.15,2013-08-22 13:29:00,
2013-08-22 06:31:00,61.2,45.8,29.86,North,360,1.0,1.0,57,0.00,,,0.00,Wunderground v.1.15,2013-08-22 13:31:00,
2013-08-22 06:33:00,61.2,46.3,29.86,North,360,1.0,2.0,58,0.00,,,0.00,Wunderground v.1.15,2013-08-22 13:33:00,
2013-08-22 06:34:00,61.2,46.3,29.86,North,360,2.0,2.0,58,0.00,,,0.00,Wunderground v.1.15,2013-08-22 13:34:00,
2013-08-22 06:36:00,61.1,44.8,29.86,North,360,1.0,2.0,55,0.00,,,0.00,Wunderground v.1.15,2013-08-22 13:36:00,
2013-08-22 06:38:00,61.2,45.8,29.86,North,360,1.0,2.0,57,0.00,,,0.00,Wunderground v.1.15,2013-08-22 13:38:00,
2013-08-22 06:39:00,61.3,45.5,29.86,North,360,0.0,2.0,56,0.00,,,0.00,Wunderground v.1.15,2013-08-22 13:39:00,
2013-08-22 06:41:00,61.3,45.0,29.86,North,360,1.0,2.0,55,0.00,,,0.00,Wunderground v.1.15,2013-08-22 13:41:00,
2013-08-22 06:43:00,61.4,45.6,29.86,North,360,1.0,2.0,56,0.00,,,0.00,Wunderground v.1.15,2013-08-22 13:43:00,
2013-08-22 06:44:00,61.5,44.7,29.86,North,360,2.0,2.0,54,0.00,,,0.00,Wunderground v.1.15,2013-08-22 13:44:00,
2013-08-22 06:46:00,61.6,44.3,29.86,North,360,2.0,2.0,53,0.00,,,0.00,Wunderground v.1.15,2013-08-22 13:46:00,
2013-08-22 06:48:00,61.7,44.4,29.86,North,360,2.0,3.0,53,0.00,,,0.00,Wunderground v.1.15,2013-08-22 13:48:00,
2013-08-22 06:49:00,61.7,44.4,29.86,North,360,2.0,3.0,53,0.00,,,0.00,Wunderground v.1.15,2013-08-22 13:49:00,
2013-08-22 06:51:00,61.7,44.4,29.86,North,360,2.0,3.0,53,0.00,,,0.00,Wunderground v.1.15,2013-08-22 13:51:00,
2013-08-22 06:53:00,61.8,44.5,29.86,North,360,4.0,5.0,53,0.00,,,0.00,Wunderground v.1.15,2013-08-22 13:53:00,
2013-08-22 06:54:00,61.9,45.1,29.86,North,360,2.0,5.0,54,0.00,,,0.00,Wunderground v.1.15,2013-08-22 13:54:00,
2013-08-22 06:56:00,62.0,45.6,29.86,North,360,3.0,5.0,55,0.00,,,0.00,Wunderground v.1.15,2013-08-22 13:56:00,
2013-08-22 06:58:00,62.0,43.1,29.86,North,360,2.0,5.0,50,0.00,,,0.00,Wunderground v.1.15,2013-08-22 13:58:00,
2013-08-22 06:59:00,62.1,43.2,29.86,North,360,2.0,5.0,50,0.00,,,0.00,Wunderground v.1.15,2013-08-22 13:59:00,
2013-08-22 07:01:00,62.2,44.3,29.86,North,360,2.0,2.0,52,0.00,,,0.00,Wunderground v.1.15,2013-08-22 14:01:00,
2013-08-22 07:03:00,62.2,43.8,29.86,North,360,2.0,2.0,51,0.00,,,0.00,Wunderground v.1.15,2013-08-22 14:03:00,
2013-08-22 07:04:00,62.3,43.9,29.86,North,360,1.0,2.0,51,0.00,,,0.00,Wunderground v.1.15,2013-08-22 14:04:00,
2013-08-22 07:06:00,62.2,43.3,29.86,North,360,0.0,2.0,50,0.00,,,0.00,Wunderground v.1.15,2013-08-22 14:06:00,
2013-08-22 07:08:00,62.2,44.9,29.86,North,360,0.0,2.0,53,0.00,,,0.00,Wunderground v.1.15,2013-08-22 14:08:00,
2013-08-22 07:09:00,62.2,44.3,29.86,North,360,0.0,2.0,52,0.00,,,0.00,Wunderground v.1.15,2013-08-22 14:09:00,
2013-08-22 07:11:00,62.2,43.8,29.86,North,360,0.0,1.0,51,0.00,,,0.00,Wunderground v.1.15,2013-08-22 14:11:00,
2013-08-22 07:13:00,62.2,44.3,29.86,North,360,0.0,1.0,52,0.00,,,0.00,Wunderground v.1.15,2013-08-22 14:13:00,
2013-08-22 07:14:00,62.3,43.9,29.86,North,360,0.0,1.0,51,0.00,,,0.00,Wunderground v.1.15,2013-08-22 14:14:00,
2013-08-22 07:16:00,62.4,45.0,29.86,North,360,0.0,1.0,53,0.00,,,0.00,Wunderground v.1.15,2013-08-22 14:16:00,
2013-08-22 07:18:00,62.5,45.1,29.86,North,360,0.0,1.0,53,0.00,,,0.00,Wunderground v.1.15,2013-08-22 14:18:00,
2013-08-22 07:19:00,62.5,45.1,29.86,North,360,0.0,1.0,53,0.00,,,0.00,Wunderground v.1.15,2013-08-22 14:19:00,
2013-08-22 07:22:00,62.7,44.3,29.86,North,360,1.0,2.0,51,0.00,,,0.00,Wunderground v.1.15,2013-08-22 14:22:00,
2013-08-22 07:23:00,62.8,43.9,29.86,North,360,1.0,2.0,50,0.00,,,0.00,Wunderground v.1.15,2013-08-22 14:23:00,
2013-08-22 07:24:00,62.9,44.5,29.86,North,360,0.0,2.0,51,0.00,,,0.00,Wunderground v.1.15,2013-08-22 14:24:00,
2013-08-22 07:27:00,63.1,44.2,29.86,North,360,0.0,2.0,50,0.00,,,0.00,Wunderground v.1.15,2013-08-22 14:27:00,
2013-08-22 07:28:00,63.2,46.3,29.86,North,360,1.0,2.0,54,0.00,,,0.00,Wunderground v.1.15,2013-08-22 14:28:00,
2013-08-22 07:29:00,63.2,45.3,29.86,North,360,1.0,2.0,52,0.00,,,0.00,Wunderground v.1.15,2013-08-22 14:29:00,
2013-08-22 07:32:00,63.2,49.5,29.86,North,360,2.0,2.0,61,0.00,,,0.00,Wunderground v.1.15,2013-08-22 14:32:00,
2013-08-22 07:34:00,63.1,50.3,29.86,North,360,2.0,3.0,63,0.00,,,0.00,Wunderground v.1.15,2013-08-22 14:34:00,
2013-08-22 07:37:00,62.7,50.3,29.86,North,360,0.0,3.0,64,0.00,,,0.00,Wunderground v.1.15,2013-08-22 14:37:00,
2013-08-22 07:39:00,62.5,47.1,29.86,North,360,2.0,3.0,57,0.00,,,0.00,Wunderground v.1.15,2013-08-22 14:39:00,
2013-08-22 07:40:00,62.5,49.3,29.86,North,360,2.0,3.0,62,0.00,,,0.00,Wunderground v.1.15,2013-08-22 14:40:00,
2013-08-22 07:42:00,62.5,47.5,29.86,North,360,4.0,4.0,58,0.00,,,0.00,Wunderground v.1.15,2013-08-22 14:42:00,
2013-08-22 07:44:00,62.6,47.6,29.86,North,360,3.0,4.0,58,0.00,,,0.00,Wunderground v.1.15,2013-08-22 14:44:00,
2013-08-22 07:45:00,62.7,48.2,29.86,North,360,3.0,4.0,59,0.00,,,0.00,Wunderground v.1.15,2013-08-22 14:45:00,
2013-08-22 07:48:00,62.9,46.0,29.87,North,360,3.0,5.0,54,0.00,,,0.00,Wunderground v.1.15,2013-08-22 14:48:00,
2013-08-22 07:49:00,63.0,47.1,29.87,North,360,5.0,5.0,56,0.00,,,0.00,Wunderground v.1.15,2013-08-22 14:49:00,
2013-08-22 07:50:00,63.1,46.2,29.87,North,360,3.0,3.0,54,0.00,,,0.00,Wunderground v.1.15,2013-08-22 14:50:00,
2013-08-22 07:53:00,63.3,46.9,29.87,North,360,2.0,3.0,55,0.00,,,0.00,Wunderground v.1.15,2013-08-22 14:53:00,
2013-08-22 07:54:00,63.4,47.4,29.87,North,360,2.0,3.0,56,0.00,,,0.00,Wunderground v.1.15,2013-08-22 14:54:00,
2013-08-22 07:56:00,63.5,47.5,29.87,North,360,3.0,4.0,56,0.00,,,0.00,Wunderground v.1.15,2013-08-22 14:56:00,
2013-08-22 07:58:00,63.5,46.1,29.87,North,360,3.0,4.0,53,0.00,,,0.00,Wunderground v.1.15,2013-08-22 14:58:00,
2013-08-22 07:59:00,63.5,46.1,29.87,North,360,3.0,4.0,53,0.00,,,0.00,Wunderground v.1.15,2013-08-22 14:59:00,
2013-08-22 08:01:00,63.7,47.7,29.87,North,360,3.0,4.0,56,0.00,,,0.00,Wunderground v.1.15,2013-08-22 15:01:00,
2013-08-22 08:03:00,63.9,48.8,29.88,North,360,5.0,6.0,58,0.00,,,0.00,Wunderground v.1.15,2013-08-22 15:03:00,
2013-08-22 08:04:00,63.9,46.9,29.88,North,360,2.0,6.0,54,0.00,,,0.00,Wunderground v.1.15,2013-08-22 15:04:00,
2013-08-22 08:05:00,63.9,47.9,29.88,North,360,4.0,6.0,56,0.00,,,0.00,Wunderground v.1.15,2013-08-22 15:05:00,
2013-08-22 08:06:00,63.8,48.3,29.88,North,360,3.0,6.0,57,0.00,,,0.00,Wunderground v.1.15,2013-08-22 15:06:00,
2013-08-22 08:08:00,63.6,48.1,29.88,North,360,5.0,6.0,57,0.00,,,0.00,Wunderground v.1.15,2013-08-22 15:08:00,
2013-08-22 08:09:00,63.4,47.9,29.88,North,360,5.0,6.0,57,0.00,,,0.00,Wunderground v.1.15,2013-08-22 15:09:00,
2013-08-22 08:10:00,63.2,47.7,29.88,North,360,3.0,6.0,57,0.00,,,0.00,Wunderground v.1.15,2013-08-22 15:10:00,
2013-08-22 08:11:00,63.1,48.5,29.88,North,360,4.0,5.0,59,0.00,,,0.00,Wunderground v.1.15,2013-08-22 15:11:00,
2013-08-22 08:13:00,63.1,49.4,29.88,North,360,3.0,5.0,61,0.00,,,0.00,Wunderground v.1.15,2013-08-22 15:13:00,
2013-08-22 08:14:00,63.1,49.4,29.88,North,360,3.0,5.0,61,0.00,,,0.00,Wunderground v.1.15,2013-08-22 15:14:00,
2013-08-22 08:15:00,63.1,49.0,29.88,North,360,4.0,5.0,60,0.00,,,0.00,Wunderground v.1.15,2013-08-22 15:15:00,
2013-08-22 08:16:00,63.2,49.1,29.88,North,360,2.0,5.0,60,0.00,,,0.00,Wunderground v.1.15,2013-08-22 15:16:00,
2013-08-22 08:18:00,63.2,48.6,29.88,North,360,2.0,5.0,59,0.00,,,0.00,Wunderground v.1.15,2013-08-22 15:18:00,
2013-08-22 08:19:00,63.2,48.6,29.88,North,360,2.0,5.0,59,0.00,,,0.00,Wunderground v.1.15,2013-08-22 15:19:00,
2013-08-22 08:20:00,63.2,49.1,29.88,North,360,3.0,5.0,60,0.00,,,0.00,Wunderground v.1.15,2013-08-22 15:20:00,
2013-08-22 08:22:00,63.4,51.0,29.88,North,360,2.0,4.0,64,0.00,,,0.00,Wunderground v.1.15,2013-08-22 15:22:00,
2013-08-22 08:23:00,63.5,50.7,29.88,North,360,3.0,4.0,63,0.00,,,0.00,Wunderground v.1.15,2013-08-22 15:23:00,
2013-08-22 08:24:00,63.6,50.8,29.88,North,360,1.0,4.0,63,0.00,,,0.00,Wunderground v.1.15,2013-08-22 15:24:00,
2013-08-22 08:25:00,63.6,49.9,29.88,North,360,4.0,4.0,61,0.00,,,0.00,Wunderground v.1.15,2013-08-22 15:25:00,
2013-08-22 08:27:00,64.1,53.3,29.88,North,360,2.0,5.0,68,0.00,,,0.00,Wunderground v.1.15,2013-08-22 15:27:00,
2013-08-22 08:28:00,64.3,52.3,29.88,North,360,2.0,5.0,65,0.00,,,0.00,Wunderground v.1.15,2013-08-22 15:28:00,
2013-08-22 08:29:00,64.4,52.8,29.88,North,360,3.0,5.0,66,0.00,,,0.00,Wunderground v.1.15,2013-08-22 15:29:00,
2013-08-22 08:30:00,64.5,53.3,29.88,North,360,3.0,5.0,67,0.00,,,0.00,Wunderground v.1.15,2013-08-22 15:30:00,
2013-08-22 08:31:00,64.6,53.0,29.88,North,360,2.0,3.0,66,0.00,,,0.00,Wunderground v.1.15,2013-08-22 15:31:00,
2013-08-22 08:32:00,64.7,53.9,29.88,North,360,3.0,4.0,68,0.00,,,0.00,Wunderground v.1.15,2013-08-22 15:32:00,
2013-08-22 08:33:00,64.7,52.2,29.88,North,360,2.0,4.0,64,0.00,,,0.00,Wunderground v.1.15,2013-08-22 15:33:00,
2013-08-22 08:34:00,64.8,53.2,29.87,North,360,2.0,4.0,66,0.00,,,0.00,Wunderground v.1.15,2013-08-22 15:34:00,
2013-08-22 08:35:00,64.8,52.3,29.87,North,360,3.0,5.0,64,0.00,,,0.00,Wunderground v.1.15,2013-08-22 15:35:00,
2013-08-22 08:36:00,64.9,52.0,29.87,North,360,4.0,5.0,63,0.00,,,0.00,Wunderground v.1.15,2013-08-22 15:36:00,
2013-08-22 08:37:00,64.9,52.0,29.87,North,360,4.0,5.0,63,0.00,,,0.00,Wunderground v.1.15,2013-08-22 15:37:00,
2013-08-22 08:38:00,64.8,50.6,29.87,North,360,4.0,5.0,60,0.00,,,0.00,Wunderground v.1.15,2013-08-22 15:38:00,
2013-08-22 08:39:00,64.8,52.8,29.87,North,360,4.0,5.0,65,0.00,,,0.00,Wunderground v.1.15,2013-08-22 15:39:00,
2013-08-22 08:40:00,64.7,49.6,29.87,North,360,4.0,5.0,58,0.00,,,0.00,Wunderground v.1.15,2013-08-22 15:40:00,
2013-08-22 08:41:00,64.7,49.6,29.87,North,360,3.0,3.0,58,0.00,,,0.00,Wunderground v.1.15,2013-08-22 15:41:00,
2013-08-22 08:42:00,64.6,49.9,29.87,North,360,3.0,5.0,59,0.00,,,0.00,Wunderground v.1.15,2013-08-22 15:42:00,
2013-08-22 08:44:00,64.7,51.8,29.87,North,360,2.0,5.0,63,0.00,,,0.00,Wunderground v.1.15,2013-08-22 15:44:00,
2013-08-22 08:45:00,64.8,50.1,29.87,North,360,3.0,5.0,59,0.00,,,0.00,Wunderground v.1.15,2013-08-22 15:45:00,
2013-08-22 08:46:00,64.9,50.2,29.87,North,360,4.0,5.0,59,0.00,,,0.00,Wunderground v.1.15,2013-08-22 15:46:00,
2013-08-22 08:47:00,65.0,51.2,29.87,North,360,4.0,5.0,61,0.00,,,0.00,Wunderground v.1.15,2013-08-22 15:47:00,
2013-08-22 08:49:00,65.2,53.1,29.86,North,360,4.0,5.0,65,0.00,,,0.00,Wunderground v.1.15,2013-08-22 15:49:00,
2013-08-22 08:50:00,65.2,50.0,29.86,North,360,4.0,5.0,58,0.00,,,0.00,Wunderground v.1.15,2013-08-22 15:50:00,
2013-08-22 08:51:00,65.2,50.0,29.86,North,360,4.0,4.0,58,0.00,,,0.00,Wunderground v.1.15,2013-08-22 15:51:00,
2013-08-22 08:52:00,65.2,51.8,29.86,North,360,3.0,4.0,62,0.00,,,0.00,Wunderground v.1.15,2013-08-22 15:52:00,
2013-08-22 08:54:00,65.6,53.9,29.86,North,360,3.0,4.0,66,0.00,,,0.00,Wunderground v.1.15,2013-08-22 15:54:00,
2013-08-22 08:55:00,65.7,53.2,29.86,North,360,3.0,4.0,64,0.00,,,0.00,Wunderground v.1.15,2013-08-22 15:55:00,
2013-08-22 08:56:00,65.9,52.1,29.86,North,360,3.0,4.0,61,0.00,,,0.00,Wunderground v.1.15,2013-08-22 15:56:00,
2013-08-22 08:57:00,66.0,51.3,29.86,North,360,3.0,5.0,59,0.00,,,0.00,Wunderground v.1.15,2013-08-22 15:57:00,
2013-08-22 08:59:00,66.5,53.9,29.86,North,360,3.0,5.0,64,0.00,,,0.00,Wunderground v.1.15,2013-08-22 15:59:00,
2013-08-22 09:00:00,66.6,54.5,29.86,North,360,4.0,5.0,65,0.00,,,0.00,Wunderground v.1.15,2013-08-22 16:00:00,
2013-08-22 09:01:00,66.8,51.5,29.86,North,360,3.0,5.0,58,0.00,,,0.00,Wunderground v.1.15,2013-08-22 16:01:00,
2013-08-22 09:02:00,67.0,52.2,29.86,North,360,4.0,5.0,59,0.00,,,0.00,Wunderground v.1.15,2013-08-22 16:02:00,
2013-08-22 09:04:00,67.4,52.6,29.86,North,360,4.0,5.0,59,0.00,,,0.00,Wunderground v.1.15,2013-08-22 16:04:00,
2013-08-22 09:05:00,67.6,50.4,29.85,North,360,4.0,5.0,54,0.00,,,0.00,Wunderground v.1.15,2013-08-22 16:05:00,
2013-08-22 09:06:00,67.7,50.9,29.85,North,360,3.0,5.0,55,0.00,,,0.00,Wunderground v.1.15,2013-08-22 16:06:00,
2013-08-22 09:07:00,68.0,51.2,29.85,North,360,3.0,5.0,55,0.00,,,0.00,Wunderground v.1.15,2013-08-22 16:07:00,
2013-08-22 09:09:00,68.3,53.4,29.86,North,360,3.0,5.0,59,0.00,,,0.00,Wunderground v.1.15,2013-08-22 16:09:00,
2013-08-22 09:10:00,68.5,53.6,29.86,North,360,2.0,5.0,59,0.00,,,0.00,Wunderground v.1.15,2013-08-22 16:10:00,
2013-08-22 09:11:00,68.8,54.3,29.85,North,360,4.0,4.0,60,0.00,,,0.00,Wunderground v.1.15,2013-08-22 16:11:00,
2013-08-22 09:12:00,69.1,50.7,29.86,North,360,4.0,4.0,52,0.00,,,0.00,Wunderground v.1.15,2013-08-22 16:12:00,
2013-08-22 09:14:00,69.5,50.6,29.86,North,360,3.0,5.0,51,0.00,,,0.00,Wunderground v.1.15,2013-08-22 16:14:00,
2013-08-22 09:15:00,69.6,50.7,29.86,North,360,3.0,5.0,51,0.00,,,0.00,Wunderground v.1.15,2013-08-22 16:15:00,
2013-08-22 09:16:00,69.9,49.9,29.85,North,360,4.0,5.0,49,0.00,,,0.00,Wunderground v.1.15,2013-08-22 16:16:00,
2013-08-22 09:17:00,70.1,48.9,29.86,North,360,5.0,5.0,47,0.00,,,0.00,Wunderground v.1.15,2013-08-22 16:17:00,
2013-08-22 09:19:00,70.4,48.0,29.85,North,360,4.0,6.0,45,0.00,,,0.00,Wunderground v.1.15,2013-08-22 16:19:00,
2013-08-22 09:20:00,70.4,48.0,29.85,North,360,4.0,6.0,45,0.00,,,0.00,Wunderground v.1.15,2013-08-22 16:20:00,
2013-08-22 09:21:00,70.5,46.9,29.85,North,360,4.0,4.0,43,0.00,,,0.00,Wunderground v.1.15,2013-08-22 16:21:00,
2013-08-22 09:22:00,70.6,50.0,29.85,North,360,2.0,4.0,48,0.00,,,0.00,Wunderground v.1.15,2013-08-22 16:22:00,
2013-08-22 09:24:00,70.9,51.9,29.85,North,360,3.0,4.0,51,0.00,,,0.00,Wunderground v.1.15,2013-08-22 16:24:00,
2013-08-22 09:25:00,71.0,52.0,29.85,North,360,3.0,4.0,51,0.00,,,0.00,Wunderground v.1.15,2013-08-22 16:25:00,
2013-08-22 09:26:00,71.0,49.2,29.85,North,360,2.0,4.0,46,0.00,,,0.00,Wunderground v.1.15,2013-08-22 16:26:00,
2013-08-22 09:27:00,71.2,50.5,29.85,North,360,4.0,4.0,48,0.00,,,0.00,Wunderground v.1.15,2013-08-22 16:27:00,
2013-08-22 09:29:00,71.3,48.3,29.85,North,360,4.0,5.0,44,0.00,,,0.00,Wunderground v.1.15,2013-08-22 16:29:00,
2013-08-22 09:30:00,71.3,48.3,29.85,North,360,5.0,5.0,44,0.00,,,0.00,Wunderground v.1.15,2013-08-22 16:30:00,
2013-08-22 09:31:00,71.3,48.9,29.85,North,360,3.0,4.0,45,0.00,,,0.00,Wunderground v.1.15,2013-08-22 16:31:00,
2013-08-22 09:32:00,71.3,48.9,29.85,North,360,4.0,4.0,45,0.00,,,0.00,Wunderground v.1.15,2013-08-22 16:32:00,
2013-08-22 09:35:00,71.4,48.9,29.85,North,360,3.0,4.0,45,0.00,,,0.00,Wunderground v.1.15,2013-08-22 16:35:00,
2013-08-22 09:36:00,71.5,49.6,29.85,North,360,3.0,4.0,46,0.00,,,0.00,Wunderground v.1.15,2013-08-22 16:36:00,
2013-08-22 09:37:00,71.6,49.7,29.85,North,360,2.0,4.0,46,0.00,,,0.00,Wunderground v.1.15,2013-08-22 16:37:00,
2013-08-22 09:40:00,71.7,49.8,29.85,North,360,2.0,4.0,46,0.00,,,0.00,Wunderground v.1.15,2013-08-22 16:40:00,
2013-08-22 09:41:00,71.7,49.2,29.86,North,360,2.0,3.0,45,0.00,,,0.00,Wunderground v.1.15,2013-08-22 16:41:00,
2013-08-22 09:42:00,71.8,48.7,29.85,North,360,2.0,3.0,44,0.00,,,0.00,Wunderground v.1.15,2013-08-22 16:42:00,
2013-08-22 09:45:00,72.0,48.9,29.85,North,360,2.0,4.0,44,0.00,,,0.00,Wunderground v.1.15,2013-08-22 16:45:00,
2013-08-22 09:46:00,72.2,49.7,29.85,North,360,1.0,4.0,45,0.00,,,0.00,Wunderground v.1.15,2013-08-22 16:46:00,
2013-08-22 09:47:00,72.2,49.7,29.85,North,360,2.0,4.0,45,0.00,,,0.00,Wunderground v.1.15,2013-08-22 16:47:00,
2013-08-22 09:48:00,72.3,50.4,29.85,North,360,1.0,4.0,46,0.00,,,0.00,Wunderground v.1.15,2013-08-22 16:48:00,
2013-08-22 09:50:00,72.9,52.1,29.85,North,360,3.0,5.0,48,0.00,,,0.00,Wunderground v.1.15,2013-08-22 16:50:00,
2013-08-22 09:51:00,73.2,50.6,29.85,North,360,3.0,4.0,45,0.00,,,0.00,Wunderground v.1.15,2013-08-22 16:51:00,
2013-08-22 09:52:00,73.2,50.6,29.85,North,360,3.0,4.0,45,0.00,,,0.00,Wunderground v.1.15,2013-08-22 16:52:00,
2013-08-22 09:53:00,73.4,48.9,29.85,North,360,5.0,5.0,42,0.00,,,0.00,Wunderground v.1.15,2013-08-22 16:53:00,
2013-08-22 09:55:00,73.7,47.9,29.85,North,360,3.0,6.0,40,0.00,,,0.00,Wunderground v.1.15,2013-08-22 16:55:00,
2013-08-22 09:57:00,74.0,49.4,29.85,North,360,3.0,6.0,42,0.00,,,0.00,Wunderground v.1.15,2013-08-22 16:57:00,
2013-08-22 09:58:00,74.1,48.2,29.85,North,360,1.0,6.0,40,0.00,,,0.00,Wunderground v.1.15,2013-08-22 16:58:00,
2013-08-22 10:00:00,74.5,48.6,29.85,North,360,4.0,4.0,40,0.00,,,0.00,Wunderground v.1.15,2013-08-22 17:00:00,
2013-08-22 10:01:00,74.5,48.6,29.85,North,360,5.0,5.0,40,0.00,,,0.00,Wunderground v.1.15,2013-08-22 17:01:00,
2013-08-22 10:02:00,74.6,49.3,29.85,North,360,4.0,6.0,41,0.00,,,0.00,Wunderground v.1.15,2013-08-22 17:02:00,
2013-08-22 10:05:00,74.6,47.3,29.85,NW,325,3.0,7.0,38,0.00,,,0.00,Wunderground v.1.15,2013-08-22 17:05:00,
2013-08-22 10:06:00,74.6,47.3,29.85,NW,325,3.0,7.0,38,0.00,,,0.00,Wunderground v.1.15,2013-08-22 17:06:00,
2013-08-22 10:07:00,74.6,46.6,29.85,NW,325,3.0,7.0,37,0.00,,,0.00,Wunderground v.1.15,2013-08-22 17:07:00,
2013-08-22 10:10:00,74.7,47.4,29.86,WNW,298,4.0,7.0,38,0.00,,,0.00,Wunderground v.1.15,2013-08-22 17:10:00,
2013-08-22 10:11:00,74.8,47.5,29.85,WNW,298,5.0,5.0,38,0.00,,,0.00,Wunderground v.1.15,2013-08-22 17:11:00,
2013-08-22 10:12:00,74.8,48.9,29.86,WNW,296,3.0,7.0,40,0.00,,,0.00,Wunderground v.1.15,2013-08-22 17:12:00,
2013-08-22 10:13:00,74.8,49.5,29.86,WNW,295,6.0,7.0,41,0.00,,,0.00,Wunderground v.1.15,2013-08-22 17:13:00,
2013-08-22 10:15:00,74.8,49.5,29.85,WNW,286,4.0,7.0,41,0.00,,,0.00,Wunderground v.1.15,2013-08-22 17:15:00,
2013-08-22 10:16:00,74.7,50.1,29.86,WNW,282,6.0,7.0,42,0.00,,,0.00,Wunderground v.1.15,2013-08-22 17:16:00,
2013-08-22 10:17:00,74.7,50.7,29.85,WNW,282,3.0,7.0,43,0.00,,,0.00,Wunderground v.1.15,2013-08-22 17:17:00,
2013-08-22 10:18:00,74.7,50.1,29.85,West,281,6.0,7.0,42,0.00,,,0.00,Wunderground v.1.15,2013-08-22 17:18:00,
2013-08-22 10:20:00,74.5,49.2,29.86,West,280,5.0,6.0,41,0.00,,,0.00,Wunderground v.1.15,2013-08-22 17:20:00,
2013-08-22 10:21:00,74.5,48.6,29.86,West,280,3.0,6.0,40,0.00,,,0.00,Wunderground v.1.15,2013-08-22 17:21:00,
2013-08-22 10:22:00,74.4,49.2,29.86,West,280,4.0,6.0,41,0.00,,,0.00,Wunderground v.1.15,2013-08-22 17:22:00,
2013-08-22 10:23:00,74.4,48.5,29.86,West,280,5.0,6.0,40,0.00,,,0.00,Wunderground v.1.15,2013-08-22 17:23:00,
2013-08-22 10:26:00,74.4,48.5,29.85,West,280,5.0,7.0,40,0.00,,,0.00,Wunderground v.1.15,2013-08-22 17:26:00,
2013-08-22 10:27:00,74.3,49.1,29.86,West,280,4.0,7.0,41,0.00,,,0.00,Wunderground v.1.15,2013-08-22 17:27:00,
2013-08-22 10:28:00,74.3,49.7,29.85,West,280,3.0,7.0,42,0.00,,,0.00,Wunderground v.1.15,2013-08-22 17:28:00,
2013-08-22 10:31:00,74.4,50.4,29.85,West,280,2.0,4.0,43,0.00,,,0.00,Wunderground v.1.15,2013-08-22 17:31:00,
2013-08-22 10:32:00,74.4,50.4,29.85,West,280,0.0,4.0,43,0.00,,,0.00,Wunderground v.1.15,2013-08-22 17:32:00,
2013-08-22 10:33:00,74.4,50.4,29.85,West,280,2.0,4.0,43,0.00,,,0.00,Wunderground v.1.15,2013-08-22 17:33:00,
2013-08-22 10:36:00,74.4,50.4,29.85,West,280,4.0,5.0,43,0.00,,,0.00,Wunderground v.1.15,2013-08-22 17:36:00,
2013-08-22 10:37:00,74.4,50.4,29.85,West,280,3.0,5.0,43,0.00,,,0.00,Wunderground v.1.15,2013-08-22 17:37:00,
2013-08-22 10:38:00,74.4,50.4,29.85,West,280,2.0,5.0,43,0.00,,,0.00,Wunderground v.1.15,2013-08-22 17:38:00,
2013-08-22 10:41:00,74.5,50.5,29.85,West,280,1.0,3.0,43,0.00,,,0.00,Wunderground v.1.15,2013-08-22 17:41:00,
2013-08-22 10:42:00,74.6,53.0,29.86,West,280,2.0,3.0,47,0.00,,,0.00,Wunderground v.1.15,2013-08-22 17:42:00,
2013-08-22 10:43:00,74.6,51.9,29.85,West,280,0.0,3.0,45,0.00,,,0.00,Wunderground v.1.15,2013-08-22 17:43:00,
2013-08-22 10:46:00,74.7,52.5,29.86,West,280,2.0,3.0,46,0.00,,,0.00,Wunderground v.1.15,2013-08-22 17:46:00,
2013-08-22 10:47:00,74.7,52.5,29.86,West,280,0.0,3.0,46,0.00,,,0.00,Wunderground v.1.15,2013-08-22 17:47:00,
2013-08-22 10:48:00,74.7,52.5,29.86,West,280,0.0,3.0,46,0.00,,,0.00,Wunderground v.1.15,2013-08-22 17:48:00,
2013-08-22 10:51:00,74.9,51.5,29.86,West,280,0.0,2.0,44,0.00,,,0.00,Wunderground v.1.15,2013-08-22 17:51:00,
2013-08-22 10:52:00,75.0,52.2,29.86,West,280,0.0,2.0,45,0.00,,,0.00,Wunderground v.1.15,2013-08-22 17:52:00,
2013-08-22 10:53:00,75.1,52.3,29.86,West,280,0.0,2.0,45,0.00,,,0.00,Wunderground v.1.15,2013-08-22 17:53:00,
2013-08-22 10:56:00,75.3,50.6,29.85,West,280,0.0,2.0,42,0.00,,,0.00,Wunderground v.1.15,2013-08-22 17:56:00,
2013-08-22 10:57:00,75.3,50.6,29.85,West,280,0.0,2.0,42,0.00,,,0.00,Wunderground v.1.15,2013-08-22 17:57:00,
2013-08-22 10:58:00,75.4,50.7,29.85,West,280,0.0,2.0,42,0.00,,,0.00,Wunderground v.1.15,2013-08-22 17:58:00,
2013-08-22 11:01:00,75.9,51.2,29.85,West,280,0.0,1.0,42,0.00,,,0.00,Wunderground v.1.15,2013-08-22 18:01:00,
2013-08-22 11:02:00,76.0,51.2,29.85,West,280,0.0,1.0,42,0.00,,,0.00,Wunderground v.1.15,2013-08-22 18:02:00,
2013-08-22 11:03:00,76.1,51.3,29.85,West,280,0.0,1.0,42,0.00,,,0.00,Wunderground v.1.15,2013-08-22 18:03:00,
2013-08-22 11:04:00,76.2,51.4,29.85,West,280,0.0,1.0,42,0.00,,,0.00,Wunderground v.1.15,2013-08-22 18:04:00,
2013-08-22 11:06:00,76.3,54.0,29.85,West,280,1.0,3.0,46,0.00,,,0.00,Wunderground v.1.15,2013-08-22 18:06:00,
2013-08-22 11:07:00,76.3,54.0,29.85,West,280,2.0,3.0,46,0.00,,,0.00,Wunderground v.1.15,2013-08-22 18:07:00,
2013-08-22 11:08:00,76.3,54.6,29.85,West,280,1.0,3.0,47,0.00,,,0.00,Wunderground v.1.15,2013-08-22 18:08:00,
2013-08-22 11:09:00,76.2,55.1,29.85,West,280,0.0,3.0,48,0.00,,,0.00,Wunderground v.1.15,2013-08-22 18:09:00,
2013-08-22 11:11:00,76.1,52.6,29.85,West,280,1.0,2.0,44,0.00,,,0.00,Wunderground v.1.15,2013-08-22 18:11:00,
2013-08-22 11:12:00,76.1,53.2,29.85,West,280,0.0,2.0,45,0.00,,,0.00,Wunderground v.1.15,2013-08-22 18:12:00,
2013-08-22 11:13:00,76.1,53.8,29.85,West,280,0.0,2.0,46,0.00,,,0.00,Wunderground v.1.15,2013-08-22 18:13:00,
2013-08-22 11:14:00,76.2,53.3,29.85,West,280,0.0,2.0,45,0.00,,,0.00,Wunderground v.1.15,2013-08-22 18:14:00,
2013-08-22 11:16:00,76.3,53.4,29.85,West,280,1.0,2.0,45,0.00,,,0.00,Wunderground v.1.15,2013-08-22 18:16:00,
2013-08-22 11:17:00,76.4,53.5,29.85,West,280,0.0,2.0,45,0.00,,,0.00,Wunderground v.1.15,2013-08-22 18:17:00,
2013-08-22 11:18:00,76.5,52.3,29.85,West,280,0.0,2.0,43,0.00,,,0.00,Wunderground v.1.15,2013-08-22 18:18:00,
2013-08-22 11:19:00,76.6,53.1,29.85,West,280,0.0,2.0,44,0.00,,,0.00,Wunderground v.1.15,2013-08-22 18:19:00,
2013-08-22 11:22:00,77.0,53.4,29.85,West,280,1.0,1.0,44,0.00,,,0.00,Wunderground v.1.15,2013-08-22 18:22:00,
2013-08-22 11:23:00,77.1,51.6,29.85,West,280,2.0,3.0,41,0.00,,,0.00,Wunderground v.1.15,2013-08-22 18:23:00,
2013-08-22 11:24:00,77.1,51.6,29.85,West,280,1.0,3.0,41,0.00,,,0.00,Wunderground v.1.15,2013-08-22 18:24:00,
2013-08-22 11:27:00,77.0,51.5,29.84,West,280,3.0,4.0,41,0.00,,,0.00,Wunderground v.1.15,2013-08-22 18:27:00,
2013-08-22 11:28:00,76.9,51.4,29.84,West,280,1.0,4.0,41,0.00,,,0.00,Wunderground v.1.15,2013-08-22 18:28:00,
2013-08-22 11:29:00,76.9,51.4,29.84,West,280,0.0,4.0,41,0.00,,,0.00,Wunderground v.1.15,2013-08-22 18:29:00,
2013-08-22 11:32:00,77.0,51.5,29.84,West,280,0.0,3.0,41,0.00,,,0.00,Wunderground v.1.15,2013-08-22 18:32:00,
2013-08-22 11:33:00,77.0,50.8,29.84,West,280,2.0,3.0,40,0.00,,,0.00,Wunderground v.1.15,2013-08-22 18:33:00,
2013-08-22 11:34:00,77.1,51.6,29.84,West,280,2.0,3.0,41,0.00,,,0.00,Wunderground v.1.15,2013-08-22 18:34:00,
2013-08-22 11:37:00,77.2,51.0,29.84,West,280,2.0,3.0,40,0.00,,,0.00,Wunderground v.1.15,2013-08-22 18:37:00,
2013-08-22 11:38:00,77.2,51.7,29.84,West,280,2.0,3.0,41,0.00,,,0.00,Wunderground v.1.15,2013-08-22 18:38:00,
2013-08-22 11:39:00,77.3,51.8,29.84,West,280,1.0,3.0,41,0.00,,,0.00,Wunderground v.1.15,2013-08-22 18:39:00,
2013-08-22 11:42:00,77.5,51.3,29.84,West,280,0.0,1.0,40,0.00,,,0.00,Wunderground v.1.15,2013-08-22 18:42:00,
2013-08-22 11:43:00,77.6,51.4,29.84,West,280,2.0,2.0,40,0.00,,,0.00,Wunderground v.1.15,2013-08-22 18:43:00,
2013-08-22 11:44:00,77.7,50.8,29.84,West,280,2.0,3.0,39,0.00,,,0.00,Wunderground v.1.15,2013-08-22 18:44:00,
2013-08-22 11:47:00,78.0,48.9,29.84,West,280,1.0,3.0,36,0.00,,,0.00,Wunderground v.1.15,2013-08-22 18:47:00,
2013-08-22 11:48:00,78.1,48.2,29.84,West,280,0.0,3.0,35,0.00,,,0.00,Wunderground v.1.15,2013-08-22 18:48:00,
2013-08-22 11:49:00,78.2,49.1,29.84,West,280,0.0,3.0,36,0.00,,,0.00,Wunderground v.1.15,2013-08-22 18:49:00,
2013-08-22 11:52:00,78.9,51.1,29.83,West,280,0.0,1.0,38,0.00,,,0.00,Wunderground v.1.15,2013-08-22 18:52:00,
2013-08-22 11:53:00,79.0,51.2,29.83,West,280,3.0,3.0,38,0.00,,,0.00,Wunderground v.1.15,2013-08-22 18:53:00,
2013-08-22 11:54:00,79.3,50.0,29.83,West,280,2.0,3.0,36,0.00,,,0.00,Wunderground v.1.15,2013-08-22 18:54:00,
2013-08-22 11:57:00,79.8,46.5,29.83,West,280,0.0,3.0,31,0.00,,,0.00,Wunderground v.1.15,2013-08-22 18:57:00,
2013-08-22 11:58:00,79.8,46.5,29.83,West,280,2.0,3.0,31,0.00,,,0.00,Wunderground v.1.15,2013-08-22 18:58:00,
2013-08-22 11:59:00,79.8,45.6,29.83,West,280,1.0,3.0,30,0.00,,,0.00,Wunderground v.1.15,2013-08-22 18:59:00,
2013-08-22 12:02:00,80.0,48.3,29.83,West,280,1.0,3.0,33,0.00,,,0.00,Wunderground v.1.15,2013-08-22 19:02:00,
2013-08-22 12:03:00,80.0,48.3,29.83,West,280,1.0,3.0,33,0.00,,,0.00,Wunderground v.1.15,2013-08-22 19:03:00,
2013-08-22 12:04:00,80.1,48.4,29.83,West,280,1.0,3.0,33,0.00,,,0.00,Wunderground v.1.15,2013-08-22 19:04:00,
2013-08-22 12:07:00,80.6,48.0,29.83,West,280,0.0,3.0,32,0.00,,,0.00,Wunderground v.1.15,2013-08-22 19:07:00,
2013-08-22 12:08:00,80.6,48.8,29.83,West,280,0.0,3.0,33,0.00,,,0.00,Wunderground v.1.15,2013-08-22 19:08:00,
2013-08-22 12:09:00,80.8,49.8,29.83,West,280,2.0,3.0,34,0.00,,,0.00,Wunderground v.1.15,2013-08-22 19:09:00,
2013-08-22 12:10:00,80.9,49.9,29.83,West,280,0.0,3.0,34,0.00,,,0.00,Wunderground v.1.15,2013-08-22 19:10:00,
2013-08-22 12:12:00,81.2,45.9,29.83,West,280,1.0,3.0,29,0.00,,,0.00,Wunderground v.1.15,2013-08-22 19:12:00,
2013-08-22 12:13:00,81.2,46.8,29.83,West,280,1.0,3.0,30,0.00,,,0.00,Wunderground v.1.15,2013-08-22 19:13:00,
2013-08-22 12:14:00,81.3,47.8,29.82,West,280,1.0,3.0,31,0.00,,,0.00,Wunderground v.1.15,2013-08-22 19:14:00,
2013-08-22 12:15:00,81.4,48.7,29.82,West,280,2.0,3.0,32,0.00,,,0.00,Wunderground v.1.15,2013-08-22 19:15:00,
2013-08-22 12:17:00,81.4,48.7,29.82,West,280,1.0,3.0,32,0.00,,,0.00,Wunderground v.1.15,2013-08-22 19:17:00,
2013-08-22 12:18:00,81.4,48.7,29.82,West,280,0.0,3.0,32,0.00,,,0.00,Wunderground v.1.15,2013-08-22 19:18:00,
2013-08-22 12:19:00,81.4,49.5,29.82,West,280,3.0,3.0,33,0.00,,,0.00,Wunderground v.1.15,2013-08-22 19:19:00,
2013-08-22 12:20:00,81.4,49.5,29.82,West,280,2.0,3.0,33,0.00,,,0.00,Wunderground v.1.15,2013-08-22 19:20:00,
2013-08-22 12:22:00,81.2,49.4,29.82,West,280,2.0,4.0,33,0.00,,,0.00,Wunderground v.1.15,2013-08-22 19:22:00,
2013-08-22 12:23:00,81.2,49.4,29.82,West,280,2.0,4.0,33,0.00,,,0.00,Wunderground v.1.15,2013-08-22 19:23:00,
2013-08-22 12:24:00,81.1,48.4,29.82,West,280,4.0,4.0,32,0.00,,,0.00,Wunderground v.1.15,2013-08-22 19:24:00,
2013-08-22 12:25:00,81.0,48.4,29.82,West,280,3.0,4.0,32,0.00,,,0.00,Wunderground v.1.15,2013-08-22 19:25:00,
2013-08-22 12:27:00,80.9,48.3,29.82,West,280,3.0,4.0,32,0.00,,,0.00,Wunderground v.1.15,2013-08-22 19:27:00,
2013-08-22 12:28:00,80.9,47.4,29.82,West,280,3.0,4.0,31,0.00,,,0.00,Wunderground v.1.15,2013-08-22 19:28:00,
2013-08-22 12:29:00,80.9,46.6,29.82,West,280,4.0,4.0,30,0.00,,,0.00,Wunderground v.1.15,2013-08-22 19:29:00,
2013-08-22 12:30:00,81.0,46.6,29.82,West,280,4.0,4.0,30,0.00,,,0.00,Wunderground v.1.15,2013-08-22 19:30:00,
2013-08-22 12:32:00,81.5,46.2,29.81,West,280,3.0,4.0,29,0.00,,,0.00,Wunderground v.1.15,2013-08-22 19:32:00,
2013-08-22 12:33:00,81.6,46.3,29.82,West,280,4.0,5.0,29,0.00,,,0.00,Wunderground v.1.15,2013-08-22 19:33:00,
2013-08-22 12:34:00,81.7,45.4,29.81,West,280,4.0,5.0,28,0.00,,,0.00,Wunderground v.1.15,2013-08-22 19:34:00,
2013-08-22 12:35:00,81.7,44.5,29.82,West,280,2.0,5.0,27,0.00,,,0.00,Wunderground v.1.15,2013-08-22 19:35:00,
2013-08-22 12:37:00,81.9,46.5,29.81,West,280,4.0,6.0,29,0.00,,,0.00,Wunderground v.1.15,2013-08-22 19:37:00,
2013-08-22 12:38:00,82.0,46.6,29.81,West,280,4.0,6.0,29,0.00,,,0.00,Wunderground v.1.15,2013-08-22 19:38:00,
2013-08-22 12:39:00,82.1,45.8,29.81,West,280,3.0,6.0,28,0.00,,,0.00,Wunderground v.1.15,2013-08-22 19:39:00,
2013-08-22 12:40:00,82.3,45.0,29.81,West,280,1.0,6.0,27,0.00,,,0.00,Wunderground v.1.15,2013-08-22 19:40:00,
2013-08-22 12:42:00,82.7,49.0,29.81,West,280,5.0,8.0,31,0.00,,,0.00,Wunderground v.1.15,2013-08-22 19:42:00,
2013-08-22 12:43:00,82.7,49.0,29.81,West,280,6.0,8.0,31,0.00,,,0.00,Wunderground v.1.15,2013-08-22 19:43:00,
2013-08-22 12:44:00,82.8,48.2,29.81,West,280,4.0,8.0,30,0.00,,,0.00,Wunderground v.1.15,2013-08-22 19:44:00,
2013-08-22 12:45:00,82.8,46.4,29.81,West,280,2.0,8.0,28,0.00,,,0.00,Wunderground v.1.15,2013-08-22 19:45:00,
2013-08-22 12:47:00,82.7,47.2,29.81,West,280,3.0,8.0,29,0.00,,,0.00,Wunderground v.1.15,2013-08-22 19:47:00,
2013-08-22 12:48:00,82.7,47.2,29.81,West,280,3.0,8.0,29,0.00,,,0.00,Wunderground v.1.15,2013-08-22 19:48:00,
2013-08-22 12:49:00,82.7,48.1,29.81,West,280,3.0,8.0,30,0.00,,,0.00,Wunderground v.1.15,2013-08-22 19:49:00,
2013-08-22 12:50:00,82.7,49.0,29.81,West,280,2.0,8.0,31,0.00,,,0.00,Wunderground v.1.15,2013-08-22 19:50:00,
2013-08-22 12:52:00,82.8,49.9,29.81,West,280,1.0,4.0,32,0.00,,,0.00,Wunderground v.1.15,2013-08-22 19:52:00,
2013-08-22 12:53:00,82.8,49.1,29.81,West,280,2.0,4.0,31,0.00,,,0.00,Wunderground v.1.15,2013-08-22 19:53:00,
2013-08-22 12:54:00,82.9,48.3,29.80,West,280,2.0,4.0,30,0.00,,,0.00,Wunderground v.1.15,2013-08-22 19:54:00,
2013-08-22 12:55:00,83.0,47.5,29.81,West,280,2.0,4.0,29,0.00,,,0.00,Wunderground v.1.15,2013-08-22 19:55:00,
2013-08-22 12:58:00,83.1,48.5,29.80,West,280,1.0,4.0,30,0.00,,,0.00,Wunderground v.1.15,2013-08-22 19:58:00,
2013-08-22 12:59:00,83.3,48.6,29.80,West,280,1.0,4.0,30,0.00,,,0.00,Wunderground v.1.15,2013-08-22 19:59:00,
2013-08-22 13:00:00,83.4,50.4,29.80,West,280,3.0,4.0,32,0.00,,,0.00,Wunderground v.1.15,2013-08-22 20:00:00,
2013-08-22 13:03:00,83.7,49.0,29.80,West,280,4.0,5.0,30,0.00,,,0.00,Wunderground v.1.15,2013-08-22 20:03:00,
2013-08-22 13:04:00,83.6,47.0,29.80,West,280,1.0,5.0,28,0.00,,,0.00,Wunderground v.1.15,2013-08-22 20:04:00,
2013-08-22 13:05:00,83.6,47.0,29.80,West,280,4.0,6.0,28,0.00,,,0.00,Wunderground v.1.15,2013-08-22 20:05:00,
2013-08-22 13:08:00,83.7,49.0,29.80,West,280,5.0,6.0,30,0.00,,,0.00,Wunderground v.1.15,2013-08-22 20:08:00,
2013-08-22 13:09:00,83.7,49.0,29.80,West,280,3.0,6.0,30,0.00,,,0.00,Wunderground v.1.15,2013-08-22 20:09:00,
2013-08-22 13:10:00,83.8,49.1,29.80,West,280,2.0,6.0,30,0.00,,,0.00,Wunderground v.1.15,2013-08-22 20:10:00,
2013-08-22 13:13:00,83.9,49.1,29.80,West,280,2.0,3.0,30,0.00,,,0.00,Wunderground v.1.15,2013-08-22 20:13:00,
2013-08-22 13:14:00,83.9,49.1,29.80,West,280,3.0,4.0,30,0.00,,,0.00,Wunderground v.1.15,2013-08-22 20:14:00,
2013-08-22 13:15:00,84.1,49.3,29.80,West,280,2.0,4.0,30,0.00,,,0.00,Wunderground v.1.15,2013-08-22 20:15:00,
2013-08-22 13:18:00,84.1,47.5,29.80,West,280,2.0,5.0,28,0.00,,,0.00,Wunderground v.1.15,2013-08-22 20:18:00,
2013-08-22 13:19:00,84.1,47.5,29.80,West,280,1.0,5.0,28,0.00,,,0.00,Wunderground v.1.15,2013-08-22 20:19:00,
2013-08-22 13:20:00,84.1,47.5,29.80,West,280,3.0,5.0,28,0.00,,,0.00,Wunderground v.1.15,2013-08-22 20:20:00,
2013-08-22 13:23:00,84.6,47.9,29.79,West,280,2.0,4.0,28,0.00,,,0.00,Wunderground v.1.15,2013-08-22 20:23:00,
2013-08-22 13:24:00,84.6,47.9,29.80,West,280,1.0,4.0,28,0.00,,,0.00,Wunderground v.1.15,2013-08-22 20:24:00,
2013-08-22 13:25:00,84.7,48.0,29.80,West,280,0.0,4.0,28,0.00,,,0.00,Wunderground v.1.15,2013-08-22 20:25:00,
2013-08-22 13:29:00,85.1,48.3,29.80,West,280,3.0,5.0,28,0.00,,,0.00,Wunderground v.1.15,2013-08-22 20:29:00,
2013-08-22 13:30:00,85.2,47.4,29.80,West,280,0.0,5.0,27,0.00,,,0.00,Wunderground v.1.15,2013-08-22 20:30:00,
2013-08-22 13:34:00,85.4,47.6,29.80,West,280,3.0,6.0,27,0.00,,,0.00,Wunderground v.1.15,2013-08-22 20:34:00,
2013-08-22 13:35:00,85.4,45.6,29.79,West,280,2.0,6.0,25,0.00,,,0.00,Wunderground v.1.15,2013-08-22 20:35:00,
2013-08-22 13:36:00,85.4,46.6,29.79,West,280,2.0,6.0,26,0.00,,,0.00,Wunderground v.1.15,2013-08-22 20:36:00,
2013-08-22 13:39:00,85.2,49.4,29.79,West,280,4.0,6.0,29,0.00,,,0.00,Wunderground v.1.15,2013-08-22 20:39:00,
2013-08-22 13:40:00,85.2,49.4,29.79,West,280,4.0,6.0,29,0.00,,,0.00,Wunderground v.1.15,2013-08-22 20:40:00,
2013-08-22 13:41:00,85.1,48.3,29.79,West,280,4.0,5.0,28,0.00,,,0.00,Wunderground v.1.15,2013-08-22 20:41:00,
2013-08-22 13:44:00,85.0,48.2,29.79,West,280,2.0,6.0,28,0.00,,,0.00,Wunderground v.1.15,2013-08-22 20:44:00,
2013-08-22 13:45:00,85.1,48.3,29.79,West,280,3.0,6.0,28,0.00,,,0.00,Wunderground v.1.15,2013-08-22 20:45:00,
2013-08-22 13:46:00,85.2,47.4,29.79,West,280,3.0,6.0,27,0.00,,,0.00,Wunderground v.1.15,2013-08-22 20:46:00,
2013-08-22 13:49:00,85.6,49.7,29.79,West,280,2.0,7.0,29,0.00,,,0.00,Wunderground v.1.15,2013-08-22 20:49:00,
2013-08-22 13:50:00,85.7,49.8,29.79,West,278,6.0,7.0,29,0.00,,,0.00,Wunderground v.1.15,2013-08-22 20:50:00,
2013-08-22 13:51:00,85.7,47.9,29.79,West,275,6.0,6.0,27,0.00,,,0.00,Wunderground v.1.15,2013-08-22 20:51:00,
2013-08-22 13:54:00,85.9,48.0,29.79,WSW,250,3.0,9.0,27,0.00,,,0.00,Wunderground v.1.15,2013-08-22 20:54:00,
2013-08-22 13:55:00,85.8,48.0,29.79,WSW,250,4.0,9.0,27,0.00,,,0.00,Wunderground v.1.15,2013-08-22 20:55:00,
2013-08-22 13:56:00,85.9,47.0,29.79,WSW,248,7.0,9.0,26,0.00,,,0.00,Wunderground v.1.15,2013-08-22 20:56:00,
2013-08-22 13:59:00,85.7,48.8,29.79,WSW,248,4.0,9.0,28,0.00,,,0.00,Wunderground v.1.15,2013-08-22 20:59:00,
2013-08-22 14:00:00,85.7,48.8,29.79,WSW,248,6.0,9.0,28,0.00,,,0.00,Wunderground v.1.15,2013-08-22 21:00:00,
2013-08-22 14:01:00,85.7,48.8,29.78,WSW,248,4.0,7.0,28,0.00,,,0.00,Wunderground v.1.15,2013-08-22 21:01:00,
2013-08-22 14:04:00,85.6,46.8,29.78,WSW,248,2.0,7.0,26,0.00,,,0.00,Wunderground v.1.15,2013-08-22 21:04:00,
2013-08-22 14:05:00,85.6,46.8,29.78,WSW,248,3.0,7.0,26,0.00,,,0.00,Wunderground v.1.15,2013-08-22 21:05:00,
2013-08-22 14:06:00,85.6,45.7,29.78,WSW,248,2.0,7.0,25,0.00,,,0.00,Wunderground v.1.15,2013-08-22 21:06:00,
2013-08-22 14:09:00,86.1,45.1,29.78,WSW,248,0.0,7.0,24,0.00,,,0.00,Wunderground v.1.15,2013-08-22 21:09:00,
2013-08-22 14:10:00,86.3,45.3,29.78,WSW,248,1.0,7.0,24,0.00,,,0.00,Wunderground v.1.15,2013-08-22 21:10:00,
2013-08-22 14:11:00,86.6,45.5,29.78,WSW,248,4.0,5.0,24,0.00,,,0.00,Wunderground v.1.15,2013-08-22 21:11:00,
2013-08-22 14:14:00,86.8,45.7,29.78,WSW,248,2.0,5.0,24,0.00,,,0.00,Wunderground v.1.15,2013-08-22 21:14:00,
2013-08-22 14:15:00,86.9,44.6,29.78,WSW,248,0.0,5.0,23,0.00,,,0.00,Wunderground v.1.15,2013-08-22 21:15:00,
2013-08-22 14:16:00,87.0,45.8,29.78,WSW,248,2.0,5.0,24,0.00,,,0.00,Wunderground v.1.15,2013-08-22 21:16:00,
2013-08-22 14:19:00,87.1,45.9,29.78,WSW,248,2.0,5.0,24,0.00,,,0.00,Wunderground v.1.15,2013-08-22 21:19:00,
2013-08-22 14:20:00,87.1,45.9,29.78,WSW,248,2.0,5.0,24,0.00,,,0.00,Wunderground v.1.15,2013-08-22 21:20:00,
2013-08-22 14:21:00,87.1,44.8,29.78,WSW,248,3.0,4.0,23,0.00,,,0.00,Wunderground v.1.15,2013-08-22 21:21:00,
2013-08-22 14:24:00,87.0,48.0,29.78,WSW,248,1.0,4.0,26,0.00,,,0.00,Wunderground v.1.15,2013-08-22 21:24:00,
2013-08-22 14:25:00,87.0,50.0,29.78,WSW,248,3.0,4.0,28,0.00,,,0.00,Wunderground v.1.15,2013-08-22 21:25:00,
2013-08-22 14:26:00,86.9,49.9,29.78,WSW,248,2.0,4.0,28,0.00,,,0.00,Wunderground v.1.15,2013-08-22 21:26:00,
2013-08-22 14:30:00,87.0,48.0,29.78,WSW,248,4.0,5.0,26,0.00,,,0.00,Wunderground v.1.15,2013-08-22 21:30:00,
2013-08-22 14:31:00,87.0,49.0,29.77,WSW,248,5.0,6.0,27,0.00,,,0.00,Wunderground v.1.15,2013-08-22 21:31:00,
2013-08-22 14:35:00,86.5,43.1,29.77,WSW,248,4.0,7.0,22,0.00,,,0.00,Wunderground v.1.15,2013-08-22 21:35:00,
2013-08-22 14:36:00,86.5,44.3,29.77,WSW,248,2.0,7.0,23,0.00,,,0.00,Wunderground v.1.15,2013-08-22 21:36:00,
2013-08-22 14:40:00,86.3,47.4,29.77,WSW,248,4.0,7.0,26,0.00,,,0.00,Wunderground v.1.15,2013-08-22 21:40:00,
2013-08-22 14:41:00,86.3,47.4,29.77,WSW,248,3.0,4.0,26,0.00,,,0.00,Wunderground v.1.15,2013-08-22 21:41:00,
2013-08-22 14:42:00,86.3,47.4,29.77,WSW,248,4.0,7.0,26,0.00,,,0.00,Wunderground v.1.15,2013-08-22 21:42:00,
2013-08-22 14:45:00,86.4,47.5,29.77,WSW,248,2.0,7.0,26,0.00,,,0.00,Wunderground v.1.15,2013-08-22 21:45:00,
2013-08-22 14:46:00,86.5,46.5,29.77,WSW,248,3.0,7.0,25,0.00,,,0.00,Wunderground v.1.15,2013-08-22 21:46:00,
2013-08-22 14:50:00,86.8,46.8,29.77,WSW,248,4.0,7.0,25,0.00,,,0.00,Wunderground v.1.15,2013-08-22 21:50:00,
2013-08-22 14:51:00,86.8,47.8,29.77,WSW,248,3.0,5.0,26,0.00,,,0.00,Wunderground v.1.15,2013-08-22 21:51:00,
2013-08-22 14:52:00,86.9,46.8,29.77,WSW,248,4.0,5.0,25,0.00,,,0.00,Wunderground v.1.15,2013-08-22 21:52:00,
2013-08-22 14:55:00,87.1,49.1,29.77,WSW,248,4.0,5.0,27,0.00,,,0.00,Wunderground v.1.15,2013-08-22 21:55:00,
2013-08-22 14:56:00,87.2,47.1,29.77,WSW,248,2.0,5.0,25,0.00,,,0.00,Wunderground v.1.15,2013-08-22 21:56:00,
2013-08-22 14:57:00,87.2,48.1,29.77,WSW,248,1.0,5.0,26,0.00,,,0.00,Wunderground v.1.15,2013-08-22 21:57:00,
2013-08-22 15:00:00,87.4,49.3,29.77,WSW,248,4.0,5.0,27,0.00,,,0.00,Wunderground v.1.15,2013-08-22 22:00:00,
2013-08-22 15:01:00,87.5,48.4,29.77,WSW,248,7.0,7.0,26,0.00,,,0.00,Wunderground v.1.15,2013-08-22 22:01:00,
2013-08-22 15:02:00,87.5,48.4,29.76,WSW,248,9.0,9.0,26,0.00,,,0.00,Wunderground v.1.15,2013-08-22 22:02:00,
2013-08-22 15:05:00,87.3,47.2,29.76,WSW,242,4.0,9.0,25,0.00,,,0.00,Wunderground v.1.15,2013-08-22 22:05:00,
2013-08-22 15:06:00,87.2,48.1,29.76,WSW,242,5.0,9.0,26,0.00,,,0.00,Wunderground v.1.15,2013-08-22 22:06:00,
2013-08-22 15:07:00,87.0,50.0,29.76,WSW,242,2.0,9.0,28,0.00,,,0.00,Wunderground v.1.15,2013-08-22 22:07:00,
2013-08-22 15:10:00,86.8,48.8,29.76,WSW,242,5.0,9.0,27,0.00,,,0.00,Wunderground v.1.15,2013-08-22 22:10:00,
2013-08-22 15:11:00,86.8,48.8,29.76,WSW,242,4.0,5.0,27,0.00,,,0.00,Wunderground v.1.15,2013-08-22 22:11:00,
2013-08-22 15:12:00,86.8,48.8,29.76,WSW,242,3.0,7.0,27,0.00,,,0.00,Wunderground v.1.15,2013-08-22 22:12:00,
2013-08-22 15:15:00,86.8,49.8,29.76,WSW,242,6.0,7.0,28,0.00,,,0.00,Wunderground v.1.15,2013-08-22 22:15:00,
2013-08-22 15:16:00,86.8,45.7,29.76,WSW,242,4.0,7.0,24,0.00,,,0.00,Wunderground v.1.15,2013-08-22 22:16:00,
2013-08-22 15:17:00,86.9,48.9,29.76,WSW,242,2.0,7.0,27,0.00,,,0.00,Wunderground v.1.15,2013-08-22 22:17:00,
2013-08-22 15:20:00,87.1,48.1,29.76,WSW,242,6.0,7.0,26,0.00,,,0.00,Wunderground v.1.15,2013-08-22 22:20:00,
2013-08-22 15:21:00,87.0,44.7,29.76,WSW,242,6.0,7.0,23,0.00,,,0.00,Wunderground v.1.15,2013-08-22 22:21:00,
2013-08-22 15:22:00,86.9,46.8,29.76,WSW,242,4.0,7.0,25,0.00,,,0.00,Wunderground v.1.15,2013-08-22 22:22:00,
2013-08-22 15:25:00,86.7,47.7,29.76,WSW,242,2.0,7.0,26,0.00,,,0.00,Wunderground v.1.15,2013-08-22 22:25:00,
2013-08-22 15:26:00,86.6,45.5,29.76,WSW,242,2.0,7.0,24,0.00,,,0.00,Wunderground v.1.15,2013-08-22 22:26:00,
2013-08-22 15:27:00,86.5,45.4,29.76,WSW,242,1.0,7.0,24,0.00,,,0.00,Wunderground v.1.15,2013-08-22 22:27:00,
2013-08-22 15:30:00,86.4,49.4,29.76,WSW,242,4.0,7.0,28,0.00,,,0.00,Wunderground v.1.15,2013-08-22 22:30:00,
2013-08-22 15:31:00,86.3,49.4,29.76,WSW,242,6.0,6.0,28,0.00,,,0.00,Wunderground v.1.15,2013-08-22 22:31:00,
2013-08-22 15:32:00,86.1,49.2,29.76,WSW,242,4.0,6.0,28,0.00,,,0.00,Wunderground v.1.15,2013-08-22 22:32:00,
2013-08-22 15:35:00,85.9,49.0,29.75,WSW,242,6.0,7.0,28,0.00,,,0.00,Wunderground v.1.15,2013-08-22 22:35:00,
2013-08-22 15:36:00,85.9,49.0,29.75,WSW,242,5.0,7.0,28,0.00,,,0.00,Wunderground v.1.15,2013-08-22 22:36:00,
2013-08-22 15:37:00,85.8,48.0,29.76,WSW,242,3.0,7.0,27,0.00,,,0.00,Wunderground v.1.15,2013-08-22 22:37:00,
2013-08-22 15:40:00,85.8,48.9,29.75,SW,234,6.0,8.0,28,0.00,,,0.00,Wunderground v.1.15,2013-08-22 22:40:00,
2013-08-22 15:41:00,85.7,45.8,29.75,SW,232,4.0,9.0,25,0.00,,,0.00,Wunderground v.1.15,2013-08-22 22:41:00,
2013-08-22 15:42:00,85.6,45.7,29.75,SW,232,5.0,9.0,25,0.00,,,0.00,Wunderground v.1.15,2013-08-22 22:42:00,
2013-08-22 15:45:00,85.4,49.5,29.75,SW,232,5.0,9.0,29,0.00,,,0.00,Wunderground v.1.15,2013-08-22 22:45:00,
2013-08-22 15:46:00,85.4,49.5,29.75,SW,232,4.0,9.0,29,0.00,,,0.00,Wunderground v.1.15,2013-08-22 22:46:00,
2013-08-22 15:47:00,85.3,48.5,29.75,SW,232,5.0,9.0,28,0.00,,,0.00,Wunderground v.1.15,2013-08-22 22:47:00,
2013-08-22 15:50:00,85.2,47.4,29.75,SW,232,3.0,9.0,27,0.00,,,0.00,Wunderground v.1.15,2013-08-22 22:50:00,
2013-08-22 15:51:00,85.2,47.4,29.75,SW,232,4.0,5.0,27,0.00,,,0.00,Wunderground v.1.15,2013-08-22 22:51:00,
2013-08-22 15:52:00,85.3,49.4,29.75,SW,232,4.0,5.0,29,0.00,,,0.00,Wunderground v.1.15,2013-08-22 22:52:00,
2013-08-22 15:55:00,85.3,44.4,29.75,SW,232,4.0,6.0,24,0.00,,,0.00,Wunderground v.1.15,2013-08-22 22:55:00,
2013-08-22 15:56:00,85.4,44.5,29.75,SW,232,5.0,6.0,24,0.00,,,0.00,Wunderground v.1.15,2013-08-22 22:56:00,
2013-08-22 15:57:00,85.4,46.6,29.75,SW,232,5.0,6.0,26,0.00,,,0.00,Wunderground v.1.15,2013-08-22 22:57:00,
2013-08-22 16:00:00,85.5,48.7,29.75,SW,232,4.0,4.0,28,0.00,,,0.00,Wunderground v.1.15,2013-08-22 23:00:00,
2013-08-22 16:01:00,85.5,49.6,29.74,SW,232,4.0,4.0,29,0.00,,,0.00,Wunderground v.1.15,2013-08-22 23:01:00,
2013-08-22 16:02:00,85.5,49.6,29.75,SW,232,2.0,6.0,29,0.00,,,0.00,Wunderground v.1.15,2013-08-22 23:02:00,
2013-08-22 16:03:00,85.5,49.6,29.74,SW,232,2.0,6.0,29,0.00,,,0.00,Wunderground v.1.15,2013-08-22 23:03:00,
2013-08-22 16:05:00,85.5,49.6,29.75,SW,232,5.0,6.0,29,0.00,,,0.00,Wunderground v.1.15,2013-08-22 23:05:00,
2013-08-22 16:06:00,85.6,48.8,29.74,SW,232,3.0,6.0,28,0.00,,,0.00,Wunderground v.1.15,2013-08-22 23:06:00,
2013-08-22 16:07:00,85.6,50.6,29.74,SW,232,5.0,6.0,30,0.00,,,0.00,Wunderground v.1.15,2013-08-22 23:07:00,
2013-08-22 16:08:00,85.6,51.5,29.74,SW,232,3.0,6.0,31,0.00,,,0.00,Wunderground v.1.15,2013-08-22 23:08:00,
2013-08-22 16:10:00,85.6,47.8,29.74,SW,232,1.0,3.0,27,0.00,,,0.00,Wunderground v.1.15,2013-08-22 23:10:00,
2013-08-22 16:11:00,85.7,47.9,29.74,SW,232,1.0,4.0,27,0.00,,,0.00,Wunderground v.1.15,2013-08-22 23:11:00,
2013-08-22 16:12:00,85.7,47.9,29.74,SW,232,2.0,4.0,27,0.00,,,0.00,Wunderground v.1.15,2013-08-22 23:12:00,
2013-08-22 16:13:00,85.9,49.0,29.74,SW,232,2.0,4.0,28,0.00,,,0.00,Wunderground v.1.15,2013-08-22 23:13:00,
2013-08-22 16:15:00,86.1,51.9,29.74,SW,232,2.0,4.0,31,0.00,,,0.00,Wunderground v.1.15,2013-08-22 23:15:00,
2013-08-22 16:16:00,86.2,50.2,29.74,SW,232,4.0,4.0,29,0.00,,,0.00,Wunderground v.1.15,2013-08-22 23:16:00,
2013-08-22 16:17:00,86.1,48.2,29.74,SW,232,4.0,5.0,27,0.00,,,0.00,Wunderground v.1.15,2013-08-22 23:17:00,
2013-08-22 16:18:00,86.1,48.2,29.74,SW,232,3.0,5.0,27,0.00,,,0.00,Wunderground v.1.15,2013-08-22 23:18:00,
2013-08-22 16:20:00,85.9,46.0,29.74,SW,232,4.0,5.0,25,0.00,,,0.00,Wunderground v.1.15,2013-08-22 23:20:00,
2013-08-22 16:21:00,85.9,46.0,29.74,SW,232,3.0,5.0,25,0.00,,,0.00,Wunderground v.1.15,2013-08-22 23:21:00,
2013-08-22 16:22:00,85.8,45.9,29.74,SW,232,4.0,5.0,25,0.00,,,0.00,Wunderground v.1.15,2013-08-22 23:22:00,
2013-08-22 16:23:00,85.8,44.8,29.73,SW,232,5.0,5.0,24,0.00,,,0.00,Wunderground v.1.15,2013-08-22 23:23:00,
2013-08-22 16:26:00,85.4,45.6,29.73,SW,232,1.0,6.0,25,0.00,,,0.00,Wunderground v.1.15,2013-08-22 23:26:00,
2013-08-22 16:27:00,85.3,47.5,29.73,SW,232,2.0,6.0,27,0.00,,,0.00,Wunderground v.1.15,2013-08-22 23:27:00,
2013-08-22 16:28:00,85.2,45.4,29.73,SW,232,2.0,6.0,25,0.00,,,0.00,Wunderground v.1.15,2013-08-22 23:28:00,
2013-08-22 16:31:00,85.1,46.4,29.73,SW,232,0.0,3.0,26,0.00,,,0.00,Wunderground v.1.15,2013-08-22 23:31:00,
2013-08-22 16:32:00,85.1,46.4,29.73,SW,232,1.0,4.0,26,0.00,,,0.00,Wunderground v.1.15,2013-08-22 23:32:00,
2013-08-22 16:33:00,85.1,46.4,29.73,SW,232,1.0,4.0,26,0.00,,,0.00,Wunderground v.1.15,2013-08-22 23:33:00,
2013-08-22 16:36:00,85.0,46.3,29.73,SW,232,2.0,4.0,26,0.00,,,0.00,Wunderground v.1.15,2013-08-22 23:36:00,
2013-08-22 16:37:00,85.0,48.2,29.73,SW,232,1.0,4.0,28,0.00,,,0.00,Wunderground v.1.15,2013-08-22 23:37:00,
2013-08-22 16:38:00,85.0,47.3,29.73,SW,232,2.0,4.0,27,0.00,,,0.00,Wunderground v.1.15,2013-08-22 23:38:00,
2013-08-22 16:41:00,84.8,47.1,29.73,SW,232,3.0,3.0,27,0.00,,,0.00,Wunderground v.1.15,2013-08-22 23:41:00,
2013-08-22 16:42:00,84.8,47.1,29.73,SW,232,2.0,3.0,27,0.00,,,0.00,Wunderground v.1.15,2013-08-22 23:42:00,
2013-08-22 16:43:00,84.8,48.1,29.72,SW,232,3.0,4.0,28,0.00,,,0.00,Wunderground v.1.15,2013-08-22 23:43:00,
2013-08-22 16:46:00,84.7,48.9,29.72,SW,232,1.0,4.0,29,0.00,,,0.00,Wunderground v.1.15,2013-08-22 23:46:00,
2013-08-22 16:47:00,84.6,47.9,29.72,SW,232,2.0,4.0,28,0.00,,,0.00,Wunderground v.1.15,2013-08-22 23:47:00,
2013-08-22 16:48:00,84.6,47.9,29.72,SW,232,2.0,4.0,28,0.00,,,0.00,Wunderground v.1.15,2013-08-22 23:48:00,
2013-08-22 16:51:00,84.5,47.8,29.72,SW,232,1.0,2.0,28,0.00,,,0.00,Wunderground v.1.15,2013-08-22 23:51:00,
2013-08-22 16:52:00,84.5,47.8,29.72,SW,232,1.0,2.0,28,0.00,,,0.00,Wunderground v.1.15,2013-08-22 23:52:00,
2013-08-22 16:53:00,84.5,47.8,29.72,SW,232,1.0,2.0,28,0.00,,,0.00,Wunderground v.1.15,2013-08-22 23:53:00,
2013-08-22 16:56:00,84.3,47.6,29.72,SW,232,1.0,3.0,28,0.00,,,0.00,Wunderground v.1.15,2013-08-22 23:56:00,
2013-08-22 16:57:00,84.3,46.7,29.72,SW,232,2.0,3.0,27,0.00,,,0.00,Wunderground v.1.15,2013-08-22 23:57:00,
2013-08-22 16:58:00,84.3,46.7,29.72,SW,232,1.0,3.0,27,0.00,,,0.00,Wunderground v.1.15,2013-08-22 23:58:00,
2013-08-22 17:01:00,84.4,49.6,29.72,SW,232,3.0,4.0,30,0.00,,,0.00,Wunderground v.1.15,2013-08-23 00:01:00,
2013-08-22 17:02:00,84.4,49.6,29.72,SW,232,2.0,4.0,30,0.00,,,0.00,Wunderground v.1.15,2013-08-23 00:02:00,
2013-08-22 17:03:00,84.4,49.6,29.72,SW,232,2.0,4.0,30,0.00,,,0.00,Wunderground v.1.15,2013-08-23 00:03:00,
2013-08-22 17:06:00,84.6,58.3,29.72,SW,232,2.0,4.0,41,0.00,,,0.00,Wunderground v.1.15,2013-08-23 00:06:00,
2013-08-22 17:07:00,84.6,60.3,29.72,SW,232,2.0,4.0,44,0.00,,,0.00,Wunderground v.1.15,2013-08-23 00:07:00,
2013-08-22 17:08:00,84.5,60.2,29.72,SW,232,2.0,4.0,44,0.00,,,0.00,Wunderground v.1.15,2013-08-23 00:08:00,
2013-08-22 17:11:00,84.1,61.7,29.72,SW,232,3.0,3.0,47,0.00,,,0.00,Wunderground v.1.15,2013-08-23 00:11:00,
2013-08-22 17:12:00,84.1,61.7,29.72,SW,232,1.0,3.0,47,0.00,,,0.00,Wunderground v.1.15,2013-08-23 00:12:00,
2013-08-22 17:13:00,84.0,62.2,29.72,SW,232,3.0,3.0,48,0.00,,,0.00,Wunderground v.1.15,2013-08-23 00:13:00,
2013-08-22 17:14:00,83.9,62.1,29.72,SW,232,2.0,3.0,48,0.00,,,0.00,Wunderground v.1.15,2013-08-23 00:14:00,
2013-08-22 17:17:00,83.5,61.7,29.72,SW,232,1.0,4.0,48,0.00,,,0.00,Wunderground v.1.15,2013-08-23 00:17:00,
2013-08-22 17:18:00,83.4,62.8,29.72,SW,232,0.0,4.0,50,0.00,,,0.00,Wunderground v.1.15,2013-08-23 00:18:00,
2013-08-22 17:19:00,83.4,62.2,29.72,SW,232,1.0,4.0,49,0.00,,,0.00,Wunderground v.1.15,2013-08-23 00:19:00,
2013-08-22 17:22:00,83.1,62.0,29.72,SW,232,0.0,3.0,49,0.00,,,0.00,Wunderground v.1.15,2013-08-23 00:22:00,
2013-08-22 17:23:00,83.0,61.9,29.72,SW,232,3.0,3.0,49,0.00,,,0.00,Wunderground v.1.15,2013-08-23 00:23:00,
2013-08-22 17:24:00,82.9,63.5,29.72,SW,232,0.0,3.0,52,0.00,,,0.00,Wunderground v.1.15,2013-08-23 00:24:00,
2013-08-22 17:27:00,82.8,61.7,29.72,SW,232,0.0,3.0,49,0.00,,,0.00,Wunderground v.1.15,2013-08-23 00:27:00,
2013-08-22 17:28:00,82.7,61.0,29.72,SW,232,0.0,3.0,48,0.00,,,0.00,Wunderground v.1.15,2013-08-23 00:28:00,
2013-08-22 17:29:00,82.7,60.4,29.72,SW,232,2.0,3.0,47,0.00,,,0.00,Wunderground v.1.15,2013-08-23 00:29:00,
2013-08-22 17:32:00,82.6,62.1,29.72,SW,232,2.0,3.0,50,0.00,,,0.00,Wunderground v.1.15,2013-08-23 00:32:00,
2013-08-22 17:33:00,82.4,61.3,29.72,SW,232,3.0,3.0,49,0.00,,,0.00,Wunderground v.1.15,2013-08-23 00:33:00,
2013-08-22 17:34:00,82.2,60.6,29.72,SW,232,2.0,3.0,48,0.00,,,0.00,Wunderground v.1.15,2013-08-23 00:34:00,
2013-08-22 17:37:00,81.6,63.9,29.72,SW,232,2.0,4.0,55,0.00,,,0.00,Wunderground v.1.15,2013-08-23 00:37:00,
2013-08-22 17:38:00,81.4,61.0,29.72,SW,232,3.0,4.0,50,0.00,,,0.00,Wunderground v.1.15,2013-08-23 00:38:00,
2013-08-22 17:39:00,81.2,63.0,29.72,SW,232,3.0,4.0,54,0.00,,,0.00,Wunderground v.1.15,2013-08-23 00:39:00,
2013-08-22 17:42:00,80.9,61.6,29.72,SW,232,2.0,3.0,52,0.00,,,0.00,Wunderground v.1.15,2013-08-23 00:42:00,
2013-08-22 17:43:00,80.9,62.7,29.72,SW,232,2.0,3.0,54,0.00,,,0.00,Wunderground v.1.15,2013-08-23 00:43:00,
2013-08-22 17:44:00,80.9,62.7,29.72,SW,232,2.0,3.0,54,0.00,,,0.00,Wunderground v.1.15,2013-08-23 00:44:00,
2013-08-22 17:47:00,80.8,62.6,29.72,SW,232,3.0,3.0,54,0.00,,,0.00,Wunderground v.1.15,2013-08-23 00:47:00,
2013-08-22 17:48:00,80.8,62.6,29.72,SW,232,3.0,3.0,54,0.00,,,0.00,Wunderground v.1.15,2013-08-23 00:48:00,
2013-08-22 17:49:00,80.9,62.2,29.72,SW,232,2.0,3.0,53,0.00,,,0.00,Wunderground v.1.15,2013-08-23 00:49:00,
2013-08-22 17:52:00,80.8,58.7,29.72,SW,232,3.0,3.0,47,0.00,,,0.00,Wunderground v.1.15,2013-08-23 00:52:00,
2013-08-22 17:53:00,80.9,59.4,29.72,SW,232,2.0,3.0,48,0.00,,,0.00,Wunderground v.1.15,2013-08-23 00:53:00,
2013-08-22 17:54:00,80.9,58.2,29.72,SW,232,2.0,3.0,46,0.00,,,0.00,Wunderground v.1.15,2013-08-23 00:54:00,
2013-08-22 17:58:00,80.9,61.1,29.72,SW,232,2.0,3.0,51,0.00,,,0.00,Wunderground v.1.15,2013-08-23 00:58:00,
2013-08-22 17:59:00,81.1,62.3,29.72,SW,232,1.0,3.0,53,0.00,,,0.00,Wunderground v.1.15,2013-08-23 00:59:00,
2013-08-22 18:03:00,81.5,59.3,29.71,SW,235,0.0,6.0,47,0.00,,,0.00,Wunderground v.1.15,2013-08-23 01:03:00,
2013-08-22 18:05:00,81.9,60.9,29.72,SW,235,0.0,6.0,49,0.00,,,0.00,Wunderground v.1.15,2013-08-23 01:05:00,
2013-08-22 18:08:00,82.2,62.8,29.72,SW,235,3.0,6.0,52,0.00,,,0.00,Wunderground v.1.15,2013-08-23 01:08:00,
2013-08-22 18:09:00,82.3,63.5,29.72,SW,235,2.0,6.0,53,0.00,,,0.00,Wunderground v.1.15,2013-08-23 01:09:00,
2013-08-22 18:13:00,82.3,64.5,29.72,SW,235,0.0,4.0,55,0.00,,,0.00,Wunderground v.1.15,2013-08-23 01:13:00,
2013-08-22 18:14:00,82.3,66.0,29.72,SW,235,2.0,4.0,58,0.00,,,0.00,Wunderground v.1.15,2013-08-23 01:14:00,
2013-08-22 18:18:00,82.3,64.5,29.72,SW,235,0.0,4.0,55,0.00,,,0.00,Wunderground v.1.15,2013-08-23 01:18:00,
2013-08-22 18:19:00,82.2,63.9,29.72,SW,235,1.0,4.0,54,0.00,,,0.00,Wunderground v.1.15,2013-08-23 01:19:00,
2013-08-22 18:23:00,82.1,59.9,29.72,SW,235,0.0,2.0,47,0.00,,,0.00,Wunderground v.1.15,2013-08-23 01:23:00,
2013-08-22 18:24:00,82.1,61.0,29.71,SW,235,1.0,2.0,49,0.00,,,0.00,Wunderground v.1.15,2013-08-23 01:24:00,
2013-08-22 18:25:00,82.0,60.4,29.71,SW,235,1.0,2.0,48,0.00,,,0.00,Wunderground v.1.15,2013-08-23 01:25:00,
2013-08-22 18:28:00,81.8,56.5,29.71,SW,235,2.0,2.0,42,0.00,,,0.00,Wunderground v.1.15,2013-08-23 01:28:00,
2013-08-22 18:29:00,81.6,56.9,29.71,SW,235,1.0,2.0,43,0.00,,,0.00,Wunderground v.1.15,2013-08-23 01:29:00,
2013-08-22 18:30:00,81.5,56.8,29.71,SW,235,1.0,3.0,43,0.00,,,0.00,Wunderground v.1.15,2013-08-23 01:30:00,
2013-08-22 18:33:00,81.2,57.2,29.71,SW,235,0.0,2.0,44,0.00,,,0.00,Wunderground v.1.15,2013-08-23 01:33:00,
2013-08-22 18:34:00,81.2,59.1,29.71,SW,235,1.0,2.0,47,0.00,,,0.00,Wunderground v.1.15,2013-08-23 01:34:00,
2013-08-22 18:35:00,81.1,59.6,29.71,SW,235,0.0,2.0,48,0.00,,,0.00,Wunderground v.1.15,2013-08-23 01:35:00,
2013-08-22 18:38:00,80.7,59.8,29.71,SW,235,0.0,2.0,49,0.00,,,0.00,Wunderground v.1.15,2013-08-23 01:38:00,
2013-08-22 18:39:00,80.6,60.2,29.71,SW,235,0.0,2.0,50,0.00,,,0.00,Wunderground v.1.15,2013-08-23 01:39:00,
2013-08-22 18:40:00,80.5,59.6,29.71,SW,235,1.0,2.0,49,0.00,,,0.00,Wunderground v.1.15,2013-08-23 01:40:00,
2013-08-22 18:43:00,80.1,59.2,29.71,SW,235,2.0,3.0,49,0.00,,,0.00,Wunderground v.1.15,2013-08-23 01:43:00,
2013-08-22 18:44:00,79.9,57.9,29.71,SW,235,2.0,3.0,47,0.00,,,0.00,Wunderground v.1.15,2013-08-23 01:44:00,
2013-08-22 18:45:00,79.7,58.8,29.70,SW,235,2.0,3.0,49,0.00,,,0.00,Wunderground v.1.15,2013-08-23 01:45:00,
2013-08-22 18:48:00,79.6,53.1,29.70,SW,235,2.0,3.0,40,0.00,,,0.00,Wunderground v.1.15,2013-08-23 01:48:00,
2013-08-22 18:49:00,79.6,53.1,29.70,SW,235,2.0,3.0,40,0.00,,,0.00,Wunderground v.1.15,2013-08-23 01:49:00,
2013-08-22 18:50:00,79.8,56.6,29.70,SW,235,3.0,3.0,45,0.00,,,0.00,Wunderground v.1.15,2013-08-23 01:50:00,
2013-08-22 18:53:00,79.8,52.6,29.70,SW,235,3.0,4.0,39,0.00,,,0.00,Wunderground v.1.15,2013-08-23 01:53:00,
2013-08-22 18:54:00,79.8,52.6,29.70,SW,235,2.0,4.0,39,0.00,,,0.00,Wunderground v.1.15,2013-08-23 01:54:00,
2013-08-22 18:55:00,79.9,54.8,29.70,SW,235,3.0,4.0,42,0.00,,,0.00,Wunderground v.1.15,2013-08-23 01:55:00,
2013-08-22 18:58:00,80.1,50.0,29.70,SW,235,2.0,4.0,35,0.00,,,0.00,Wunderground v.1.15,2013-08-23 01:58:00,
2013-08-22 18:59:00,80.1,49.2,29.70,SW,235,2.0,4.0,34,0.00,,,0.00,Wunderground v.1.15,2013-08-23 01:59:00,
2013-08-22 19:00:00,80.3,50.9,29.70,SW,235,2.0,4.0,36,0.00,,,0.00,Wunderground v.1.15,2013-08-23 02:00:00,
2013-08-22 19:03:00,80.5,50.3,29.70,SW,235,3.0,3.0,35,0.00,,,0.00,Wunderground v.1.15,2013-08-23 02:03:00,
2013-08-22 19:04:00,80.6,52.6,29.70,SW,235,2.0,3.0,38,0.00,,,0.00,Wunderground v.1.15,2013-08-23 02:04:00,
2013-08-22 19:05:00,80.6,51.2,29.70,SW,235,1.0,3.0,36,0.00,,,0.00,Wunderground v.1.15,2013-08-23 02:05:00,
2013-08-22 19:08:00,80.5,47.1,29.70,SW,235,1.0,3.0,31,0.00,,,0.00,Wunderground v.1.15,2013-08-23 02:08:00,
2013-08-22 19:09:00,80.5,47.9,29.70,SW,235,1.0,3.0,32,0.00,,,0.00,Wunderground v.1.15,2013-08-23 02:09:00,
2013-08-22 19:10:00,80.6,47.2,29.70,SW,235,0.0,3.0,31,0.00,,,0.00,Wunderground v.1.15,2013-08-23 02:10:00,
2013-08-22 19:13:00,80.9,46.6,29.70,SW,235,0.0,2.0,30,0.00,,,0.00,Wunderground v.1.15,2013-08-23 02:13:00,
2013-08-22 19:14:00,81.0,46.6,29.70,SW,235,0.0,2.0,30,0.00,,,0.00,Wunderground v.1.15,2013-08-23 02:14:00,
2013-08-22 19:15:00,81.1,48.4,29.70,SW,235,0.0,2.0,32,0.00,,,0.00,Wunderground v.1.15,2013-08-23 02:15:00,
2013-08-22 19:19:00,81.3,49.4,29.70,SW,235,0.0,2.0,33,0.00,,,0.00,Wunderground v.1.15,2013-08-23 02:19:00,
2013-08-22 19:20:00,81.3,52.5,29.70,SW,235,0.0,2.0,37,0.00,,,0.00,Wunderground v.1.15,2013-08-23 02:20:00,
2013-08-22 19:24:00,81.4,51.9,29.70,SW,235,0.0,0.0,36,0.00,,,0.00,Wunderground v.1.15,2013-08-23 02:24:00,
2013-08-22 19:25:00,81.4,51.1,29.70,SW,235,0.0,1.0,35,0.00,,,0.00,Wunderground v.1.15,2013-08-23 02:25:00,
2013-08-22 19:29:00,81.5,49.6,29.71,SW,235,2.0,3.0,33,0.00,,,0.00,Wunderground v.1.15,2013-08-23 02:29:00,
2013-08-22 19:30:00,81.6,49.7,29.71,SW,235,2.0,3.0,33,0.00,,,0.00,Wunderground v.1.15,2013-08-23 02:30:00,
2013-08-22 19:34:00,81.7,53.6,29.71,SW,235,1.0,3.0,38,0.00,,,0.00,Wunderground v.1.15,2013-08-23 02:34:00,
2013-08-22 19:35:00,81.7,55.0,29.71,SW,235,0.0,3.0,40,0.00,,,0.00,Wunderground v.1.15,2013-08-23 02:35:00,
2013-08-22 19:39:00,81.2,57.2,29.71,SW,235,2.0,3.0,44,0.00,,,0.00,Wunderground v.1.15,2013-08-23 02:39:00,
2013-08-22 19:40:00,81.0,57.0,29.71,SW,235,2.0,3.0,44,0.00,,,0.00,Wunderground v.1.15,2013-08-23 02:40:00,
2013-08-22 19:44:00,80.3,57.6,29.71,SW,235,2.0,3.0,46,0.00,,,0.00,Wunderground v.1.15,2013-08-23 02:44:00,
2013-08-22 19:45:00,80.2,62.0,29.71,SW,235,2.0,3.0,54,0.00,,,0.00,Wunderground v.1.15,2013-08-23 02:45:00,
2013-08-22 19:46:00,80.0,58.5,29.71,SW,235,2.0,3.0,48,0.00,,,0.00,Wunderground v.1.15,2013-08-23 02:46:00,
2013-08-22 19:49:00,79.8,63.7,29.71,SW,235,0.0,3.0,58,0.00,,,0.00,Wunderground v.1.15,2013-08-23 02:49:00,
2013-08-22 19:50:00,79.7,64.6,29.71,SW,235,1.0,3.0,60,0.00,,,0.00,Wunderground v.1.15,2013-08-23 02:50:00,
2013-08-22 19:54:00,79.0,64.4,29.71,SW,235,1.0,2.0,61,0.00,,,0.00,Wunderground v.1.15,2013-08-23 02:54:00,
2013-08-22 19:55:00,78.5,57.7,29.71,SW,235,1.0,2.0,49,0.00,,,0.00,Wunderground v.1.15,2013-08-23 02:55:00,
2013-08-22 19:56:00,78.4,59.3,29.71,SW,235,0.0,2.0,52,0.00,,,0.00,Wunderground v.1.15,2013-08-23 02:56:00,
2013-08-22 19:59:00,77.4,58.9,29.71,SW,235,2.0,2.0,53,0.00,,,0.00,Wunderground v.1.15,2013-08-23 02:59:00,
2013-08-22 20:00:00,76.8,57.8,29.71,SW,235,2.0,3.0,52,0.00,,,0.00,Wunderground v.1.15,2013-08-23 03:00:00,
2013-08-22 20:01:00,76.5,57.0,29.71,SW,235,3.0,3.0,51,0.00,,,0.00,Wunderground v.1.15,2013-08-23 03:01:00,
2013-08-22 20:04:00,75.8,55.8,29.71,SW,235,2.0,3.0,50,0.00,,,0.00,Wunderground v.1.15,2013-08-23 03:04:00,
2013-08-22 20:05:00,75.7,56.3,29.71,SW,235,2.0,3.0,51,0.00,,,0.00,Wunderground v.1.15,2013-08-23 03:05:00,
2013-08-22 20:06:00,75.6,56.7,29.71,SW,235,1.0,3.0,52,0.00,,,0.00,Wunderground v.1.15,2013-08-23 03:06:00,
2013-08-22 20:09:00,75.5,52.7,29.71,SW,235,2.0,3.0,45,0.00,,,0.00,Wunderground v.1.15,2013-08-23 03:09:00,
2013-08-22 20:10:00,75.7,52.2,29.71,SW,235,2.0,3.0,44,0.00,,,0.00,Wunderground v.1.15,2013-08-23 03:10:00,
2013-08-22 20:11:00,75.8,51.7,29.71,SW,235,2.0,2.0,43,0.00,,,0.00,Wunderground v.1.15,2013-08-23 03:11:00,
2013-08-22 20:14:00,76.6,51.8,29.71,SW,235,3.0,3.0,42,0.00,,,0.00,Wunderground v.1.15,2013-08-23 03:14:00,
2013-08-22 20:15:00,76.7,51.9,29.72,SW,235,3.0,3.0,42,0.00,,,0.00,Wunderground v.1.15,2013-08-23 03:15:00,
2013-08-22 20:16:00,77.0,51.5,29.72,SW,235,3.0,4.0,41,0.00,,,0.00,Wunderground v.1.15,2013-08-23 03:16:00,
2013-08-22 20:19:00,77.4,51.9,29.72,SW,235,3.0,4.0,41,0.00,,,0.00,Wunderground v.1.15,2013-08-23 03:19:00,
2013-08-22 20:20:00,77.5,49.9,29.72,SW,235,3.0,4.0,38,0.00,,,0.00,Wunderground v.1.15,2013-08-23 03:20:00,
2013-08-22 20:21:00,77.6,52.7,29.71,SW,235,3.0,3.0,42,0.00,,,0.00,Wunderground v.1.15,2013-08-23 03:21:00,
2013-08-22 20:24:00,77.8,56.5,29.72,SW,235,3.0,3.0,48,0.00,,,0.00,Wunderground v.1.15,2013-08-23 03:24:00,
2013-08-22 20:25:00,77.7,54.0,29.72,SW,235,3.0,3.0,44,0.00,,,0.00,Wunderground v.1.15,2013-08-23 03:25:00,
2013-08-22 20:26:00,77.6,50.7,29.71,SW,235,2.0,3.0,39,0.00,,,0.00,Wunderground v.1.15,2013-08-23 03:26:00,
2013-08-22 20:29:00,77.6,50.7,29.72,SW,235,4.0,4.0,39,0.00,,,0.00,Wunderground v.1.15,2013-08-23 03:29:00,
2013-08-22 20:30:00,77.7,51.5,29.72,SW,235,4.0,4.0,40,0.00,,,0.00,Wunderground v.1.15,2013-08-23 03:30:00,
2013-08-22 20:31:00,77.6,53.3,29.72,SW,235,3.0,4.0,43,0.00,,,0.00,Wunderground v.1.15,2013-08-23 03:31:00,
2013-08-22 20:34:00,77.0,55.2,29.72,SW,235,3.0,5.0,47,0.00,,,0.00,Wunderground v.1.15,2013-08-23 03:34:00,
2013-08-22 20:35:00,76.7,55.5,29.72,SW,235,3.0,5.0,48,0.00,,,0.00,Wunderground v.1.15,2013-08-23 03:35:00,
2013-08-22 20:36:00,76.4,55.3,29.72,SW,235,4.0,5.0,48,0.00,,,0.00,Wunderground v.1.15,2013-08-23 03:36:00,
2013-08-22 20:39:00,74.8,54.9,29.71,SW,235,2.0,5.0,50,0.00,,,0.00,Wunderground v.1.15,2013-08-23 03:39:00,
2013-08-22 20:40:00,74.5,54.6,29.71,SW,235,2.0,5.0,50,0.00,,,0.00,Wunderground v.1.15,2013-08-23 03:40:00,
2013-08-22 20:41:00,74.1,54.3,29.71,SW,235,2.0,3.0,50,0.00,,,0.00,Wunderground v.1.15,2013-08-23 03:41:00,
2013-08-22 20:44:00,73.1,53.9,29.71,SW,235,3.0,4.0,51,0.00,,,0.00,Wunderground v.1.15,2013-08-23 03:44:00,
2013-08-22 20:45:00,73.0,53.8,29.71,SW,235,4.0,4.0,51,0.00,,,0.00,Wunderground v.1.15,2013-08-23 03:45:00,
2013-08-22 20:46:00,72.9,53.7,29.71,SW,235,3.0,5.0,51,0.00,,,0.00,Wunderground v.1.15,2013-08-23 03:46:00,
2013-08-22 20:49:00,72.8,53.1,29.71,WSW,237,3.0,5.0,50,0.00,,,0.00,Wunderground v.1.15,2013-08-23 03:49:00,
2013-08-22 20:50:00,72.8,53.6,29.71,WSW,238,3.0,3.0,51,0.00,,,0.00,Wunderground v.1.15,2013-08-23 03:50:00,
2013-08-22 20:51:00,72.8,53.6,29.71,WSW,238,3.0,4.0,51,0.00,,,0.00,Wunderground v.1.15,2013-08-23 03:51:00,
2013-08-22 20:54:00,72.6,51.8,29.71,WSW,240,3.0,5.0,48,0.00,,,0.00,Wunderground v.1.15,2013-08-23 03:54:00,
2013-08-22 20:55:00,72.7,52.4,29.71,WSW,241,4.0,5.0,49,0.00,,,0.00,Wunderground v.1.15,2013-08-23 03:55:00,
2013-08-22 20:56:00,72.7,52.4,29.71,WSW,241,3.0,5.0,49,0.00,,,0.00,Wunderground v.1.15,2013-08-23 03:56:00,
2013-08-22 20:59:00,73.0,52.1,29.71,WSW,248,4.0,5.0,48,0.00,,,0.00,Wunderground v.1.15,2013-08-23 03:59:00,
2013-08-22 21:00:00,73.0,52.7,29.70,WSW,252,4.0,5.0,49,0.00,,,0.00,Wunderground v.1.15,2013-08-23 04:00:00,
2013-08-22 21:01:00,73.1,52.8,29.70,WSW,252,4.0,5.0,49,0.00,,,0.00,Wunderground v.1.15,2013-08-23 04:01:00,
2013-08-22 21:06:00,73.8,50.5,29.70,West,267,4.0,6.0,44,0.00,,,0.00,Wunderground v.1.15,2013-08-23 04:06:00,
2013-08-22 21:11:00,74.6,53.0,29.71,West,267,3.0,4.0,47,0.00,,,0.00,Wunderground v.1.15,2013-08-23 04:11:00,
2013-08-22 21:16:00,75.1,53.5,29.71,West,267,3.0,4.0,47,0.00,,,0.00,Wunderground v.1.15,2013-08-23 04:16:00,
2013-08-22 21:21:00,75.8,54.7,29.71,West,267,4.0,4.0,48,0.00,,,0.00,Wunderground v.1.15,2013-08-23 04:21:00,
2013-08-22 21:26:00,76.5,53.0,29.70,West,267,4.0,4.0,44,0.00,,,0.00,Wunderground v.1.15,2013-08-23 04:26:00,
2013-08-22 21:31:00,76.5,49.0,29.70,West,267,5.0,5.0,38,0.00,,,0.00,Wunderground v.1.15,2013-08-23 04:31:00,
2013-08-22 21:36:00,76.6,47.6,29.70,West,267,4.0,5.0,36,0.00,,,0.00,Wunderground v.1.15,2013-08-23 04:36:00,
2013-08-22 21:41:00,77.3,50.4,29.70,West,267,3.0,6.0,39,0.00,,,0.00,Wunderground v.1.15,2013-08-23 04:41:00,
2013-08-22 21:42:00,77.1,50.2,29.70,West,267,3.0,6.0,39,0.00,,,0.00,Wunderground v.1.15,2013-08-23 04:42:00,
2013-08-22 21:46:00,75.8,50.4,29.70,West,271,4.0,6.0,41,0.00,,,0.00,Wunderground v.1.15,2013-08-23 04:46:00,
2013-08-22 21:47:00,75.7,49.0,29.70,West,271,4.0,6.0,39,0.00,,,0.00,Wunderground v.1.15,2013-08-23 04:47:00,
2013-08-22 21:51:00,75.8,54.7,29.70,West,271,3.0,4.0,48,0.00,,,0.00,Wunderground v.1.15,2013-08-23 04:51:00,
2013-08-22 21:52:00,75.8,54.7,29.70,West,271,2.0,4.0,48,0.00,,,0.00,Wunderground v.1.15,2013-08-23 04:52:00,
2013-08-22 21:56:00,76.3,47.4,29.70,West,271,3.0,4.0,36,0.00,,,0.00,Wunderground v.1.15,2013-08-23 04:56:00,
2013-08-22 21:57:00,76.3,47.4,29.70,West,271,2.0,4.0,36,0.00,,,0.00,Wunderground v.1.15,2013-08-23 04:57:00,
2013-08-22 22:02:00,76.7,48.5,29.70,West,271,3.0,4.0,37,0.00,,,0.00,Wunderground v.1.15,2013-08-23 05:02:00,
2013-08-22 22:07:00,74.8,48.9,29.70,West,271,4.0,5.0,40,0.00,,,0.00,Wunderground v.1.15,2013-08-23 05:07:00,
2013-08-22 22:12:00,74.8,47.5,29.70,WNW,296,5.0,5.0,38,0.00,,,0.00,Wunderground v.1.15,2013-08-23 05:12:00,
2013-08-22 22:17:00,75.3,48.6,29.70,WNW,298,2.0,5.0,39,0.00,,,0.00,Wunderground v.1.15,2013-08-23 05:17:00,
2013-08-22 22:22:00,75.3,45.7,29.71,WNW,298,3.0,4.0,35,0.00,,,0.00,Wunderground v.1.15,2013-08-23 05:22:00,
2013-08-22 22:27:00,75.6,45.2,29.71,WNW,298,3.0,4.0,34,0.00,,,0.00,Wunderground v.1.15,2013-08-23 05:27:00,
2013-08-22 22:28:00,75.5,48.1,29.71,WNW,298,3.0,4.0,38,0.00,,,0.00,Wunderground v.1.15,2013-08-23 05:28:00,
2013-08-22 22:32:00,73.7,48.5,29.70,WNW,298,4.0,4.0,41,0.00,,,0.00,Wunderground v.1.15,2013-08-23 05:32:00,
2013-08-22 22:33:00,73.2,48.1,29.70,WNW,298,3.0,4.0,41,0.00,,,0.00,Wunderground v.1.15,2013-08-23 05:33:00,
2013-08-22 22:37:00,73.5,47.7,29.70,WNW,298,3.0,4.0,40,0.00,,,0.00,Wunderground v.1.15,2013-08-23 05:37:00,
2013-08-22 22:38:00,73.6,45.0,29.70,WNW,298,3.0,4.0,36,0.00,,,0.00,Wunderground v.1.15,2013-08-23 05:38:00,
2013-08-22 22:42:00,73.9,49.4,29.70,WNW,298,3.0,3.0,42,0.00,,,0.00,Wunderground v.1.15,2013-08-23 05:42:00,
2013-08-22 22:43:00,73.7,49.2,29.70,WNW,298,3.0,4.0,42,0.00,,,0.00,Wunderground v.1.15,2013-08-23 05:43:00,
2013-08-22 22:47:00,73.6,47.8,29.70,WNW,298,2.0,4.0,40,0.00,,,0.00,Wunderground v.1.15,2013-08-23 05:47:00,
2013-08-22 22:48:00,73.6,47.8,29.70,WNW,298,2.0,4.0,40,0.00,,,0.00,Wunderground v.1.15,2013-08-23 05:48:00,
2013-08-22 22:52:00,72.8,46.4,29.69,WNW,298,0.0,3.0,39,0.00,,,0.00,Wunderground v.1.15,2013-08-23 05:52:00,
2013-08-22 22:53:00,72.8,48.4,29.69,WNW,298,1.0,3.0,42,0.00,,,0.00,Wunderground v.1.15,2013-08-23 05:53:00,
2013-08-22 22:57:00,72.9,45.8,29.69,WNW,298,0.0,3.0,38,0.00,,,0.00,Wunderground v.1.15,2013-08-23 05:57:00,
2013-08-22 22:58:00,73.0,46.6,29.69,WNW,298,0.0,3.0,39,0.00,,,0.00,Wunderground v.1.15,2013-08-23 05:58:00,
2013-08-22 23:02:00,73.4,48.3,29.69,WNW,298,0.0,1.0,41,0.00,,,0.00,Wunderground v.1.15,2013-08-23 06:02:00,
2013-08-22 23:03:00,73.4,48.3,29.69,WNW,298,0.0,1.0,41,0.00,,,0.00,Wunderground v.1.15,2013-08-23 06:03:00,
2013-08-22 23:07:00,73.4,47.6,29.69,WNW,298,0.0,1.0,40,0.00,,,0.00,Wunderground v.1.15,2013-08-23 06:07:00,
2013-08-22 23:08:00,73.4,48.9,29.69,WNW,298,0.0,1.0,42,0.00,,,0.00,Wunderground v.1.15,2013-08-23 06:08:00,
2013-08-22 23:12:00,73.2,48.7,29.69,WNW,298,0.0,1.0,42,0.00,,,0.00,Wunderground v.1.15,2013-08-23 06:12:00,
2013-08-22 23:13:00,73.2,48.1,29.69,WNW,298,0.0,1.0,41,0.00,,,0.00,Wunderground v.1.15,2013-08-23 06:13:00,
2013-08-22 23:17:00,73.2,47.4,29.69,WNW,298,0.0,1.0,40,0.00,,,0.00,Wunderground v.1.15,2013-08-23 06:17:00,
2013-08-22 23:18:00,73.2,47.4,29.68,WNW,298,0.0,1.0,40,0.00,,,0.00,Wunderground v.1.15,2013-08-23 06:18:00,
2013-08-22 23:22:00,73.3,46.8,29.68,WNW,298,1.0,2.0,39,0.00,,,0.00,Wunderground v.1.15,2013-08-23 06:22:00,
2013-08-22 23:23:00,73.3,46.8,29.68,WNW,298,1.0,2.0,39,0.00,,,0.00,Wunderground v.1.15,2013-08-23 06:23:00,
2013-08-22 23:27:00,73.3,46.2,29.68,WNW,298,1.0,2.0,38,0.00,,,0.00,Wunderground v.1.15,2013-08-23 06:27:00,
2013-08-22 23:28:00,73.3,46.2,29.68,WNW,298,1.0,2.0,38,0.00,,,0.00,Wunderground v.1.15,2013-08-23 06:28:00,
2013-08-22 23:32:00,73.3,46.2,29.68,WNW,298,1.0,2.0,38,0.00,,,0.00,Wunderground v.1.15,2013-08-23 06:32:00,
2013-08-22 23:33:00,73.4,46.2,29.68,WNW,298,1.0,2.0,38,0.00,,,0.00,Wunderground v.1.15,2013-08-23 06:33:00,
2013-08-22 23:37:00,73.4,46.9,29.68,WNW,298,1.0,2.0,39,0.00,,,0.00,Wunderground v.1.15,2013-08-23 06:37:00,
2013-08-22 23:38:00,73.4,47.6,29.68,WNW,298,1.0,2.0,40,0.00,,,0.00,Wunderground v.1.15,2013-08-23 06:38:00,
2013-08-22 23:39:00,73.3,48.8,29.68,WNW,298,0.0,2.0,42,0.00,,,0.00,Wunderground v.1.15,2013-08-23 06:39:00,
2013-08-22 23:42:00,73.1,47.3,29.68,WNW,298,0.0,1.0,40,0.00,,,0.00,Wunderground v.1.15,2013-08-23 06:42:00,
2013-08-22 23:43:00,73.1,51.7,29.68,WNW,298,0.0,1.0,47,0.00,,,0.00,Wunderground v.1.15,2013-08-23 06:43:00,
2013-08-22 23:44:00,73.0,50.4,29.68,WNW,298,0.0,1.0,45,0.00,,,0.00,Wunderground v.1.15,2013-08-23 06:44:00,
2013-08-22 23:47:00,72.2,47.8,29.67,WNW,298,2.0,2.0,42,0.00,,,0.00,Wunderground v.1.15,2013-08-23 06:47:00,
2013-08-22 23:48:00,72.2,47.8,29.68,WNW,298,1.0,2.0,42,0.00,,,0.00,Wunderground v.1.15,2013-08-23 06:48:00,
2013-08-22 23:49:00,72.1,47.7,29.68,WNW,298,2.0,3.0,42,0.00,,,0.00,Wunderground v.1.15,2013-08-23 06:49:00,
2013-08-22 23:53:00,72.2,45.9,29.67,WNW,298,3.0,3.0,39,0.00,,,0.00,Wunderground v.1.15,2013-08-23 06:53:00,
2013-08-22 23:54:00,72.3,45.9,29.67,WNW,298,2.0,3.0,39,0.00,,,0.00,Wunderground v.1.15,2013-08-23 06:54:00,
2013-08-22 23:58:00,72.9,45.8,29.68,WNW,298,3.0,3.0,38,0.00,,,0.00,Wunderground v.1.15,2013-08-23 06:58:00,
2013-08-22 23:59:00,73.1,46.0,29.68,WNW,298,3.0,4.0,38,0.00,,,0.00,Wunderground v.1.15,2013-08-23 06:59:00,